<?xml version='1.0' encoding='UTF-8'?>
<gpx version="1.1" creator="https://www.komoot.de" xmlns="http://www.topografix.com/GPX/1/1" xmlns:xsi="http://www.w3.org/2001/XMLSchema-instance" xsi:schemaLocation="http://www.topografix.com/GPX/1/1 http://www.topografix.com/GPX/1/1/gpx.xsd">
  <metadata>
    <name>VRF 2026</name>
    <author>
      <link href="https://www.komoot.de">
        <text>komoot</text>
        <type>text/html</type>
      </link>
    </author>
  </metadata>
  <trk>
    <name>VRF 2026</name>
    <trkseg>
      <trkpt lat="48.072106" lon="7.807503">
        <ele>199.537618</ele>
        <time>2025-11-04T15:11:16.954Z</time>
      </trkpt>
      <trkpt lat="48.072051" lon="7.807354">
        <ele>199.537618</ele>
        <time>2025-11-04T15:11:24.805Z</time>
      </trkpt>
      <trkpt lat="48.072030" lon="7.807272">
        <ele>199.537618</ele>
        <time>2025-11-04T15:11:26.061Z</time>
      </trkpt>
      <trkpt lat="48.071918" lon="7.806830">
        <ele>199.537618</ele>
        <time>2025-11-04T15:11:32.760Z</time>
      </trkpt>
      <trkpt lat="48.071776" lon="7.806417">
        <ele>199.537618</ele>
        <time>2025-11-04T15:11:39.353Z</time>
      </trkpt>
      <trkpt lat="48.071771" lon="7.806291">
        <ele>199.537618</ele>
        <time>2025-11-04T15:11:41.137Z</time>
      </trkpt>
      <trkpt lat="48.071831" lon="7.806061">
        <ele>199.493421</ele>
        <time>2025-11-04T15:11:44.657Z</time>
      </trkpt>
      <trkpt lat="48.071834" lon="7.805743">
        <ele>199.430236</ele>
        <time>2025-11-04T15:11:49.079Z</time>
      </trkpt>
      <trkpt lat="48.071741" lon="7.805212">
        <ele>199.321175</ele>
        <time>2025-11-04T15:11:56.504Z</time>
      </trkpt>
      <trkpt lat="48.071599" lon="7.804721">
        <ele>199.214881</ele>
        <time>2025-11-04T15:12:03.744Z</time>
      </trkpt>
      <trkpt lat="48.071552" lon="7.804778">
        <ele>199.196894</ele>
        <time>2025-11-04T15:12:05.395Z</time>
      </trkpt>
      <trkpt lat="48.071301" lon="7.805072">
        <ele>199.102123</ele>
        <time>2025-11-04T15:12:14.050Z</time>
      </trkpt>
      <trkpt lat="48.071252" lon="7.805085">
        <ele>199.087327</ele>
        <time>2025-11-04T15:12:15.395Z</time>
      </trkpt>
      <trkpt lat="48.071199" lon="7.805027">
        <ele>199.067805</ele>
        <time>2025-11-04T15:12:17.172Z</time>
      </trkpt>
      <trkpt lat="48.071129" lon="7.804915">
        <ele>199.037336</ele>
        <time>2025-11-04T15:12:19.954Z</time>
      </trkpt>
      <trkpt lat="48.070447" lon="7.805839">
        <ele>199.015597</ele>
        <time>2025-11-04T15:12:51.806Z</time>
      </trkpt>
      <trkpt lat="48.069510" lon="7.807109">
        <ele>199.067737</ele>
        <time>2025-11-04T15:13:35.447Z</time>
      </trkpt>
      <trkpt lat="48.069406" lon="7.807210">
        <ele>199.084458</ele>
        <time>2025-11-04T15:13:39.711Z</time>
      </trkpt>
      <trkpt lat="48.069340" lon="7.807301">
        <ele>199.096561</ele>
        <time>2025-11-04T15:13:42.813Z</time>
      </trkpt>
      <trkpt lat="48.069406" lon="7.807210">
        <ele>199.108664</ele>
        <time>2025-11-04T15:13:45.917Z</time>
      </trkpt>
      <trkpt lat="48.069510" lon="7.807109">
        <ele>199.125385</ele>
        <time>2025-11-04T15:13:50.186Z</time>
      </trkpt>
      <trkpt lat="48.068478" lon="7.805902">
        <ele>199.253278</ele>
        <time>2025-11-04T15:14:35.489Z</time>
      </trkpt>
      <trkpt lat="48.067766" lon="7.805307">
        <ele>199.172151</ele>
        <time>2025-11-04T15:15:03.691Z</time>
      </trkpt>
      <trkpt lat="48.067660" lon="7.805178">
        <ele>199.158559</ele>
        <time>2025-11-04T15:15:08.420Z</time>
      </trkpt>
      <trkpt lat="48.067357" lon="7.804478">
        <ele>199.103115</ele>
        <time>2025-11-04T15:15:27.731Z</time>
      </trkpt>
      <trkpt lat="48.067349" lon="7.804378">
        <ele>199.096420</ele>
        <time>2025-11-04T15:15:30.063Z</time>
      </trkpt>
      <trkpt lat="48.067424" lon="7.803259">
        <ele>199.049028</ele>
        <time>2025-11-04T15:15:56.084Z</time>
      </trkpt>
      <trkpt lat="48.067487" lon="7.803079">
        <ele>199.040558</ele>
        <time>2025-11-04T15:16:00.797Z</time>
      </trkpt>
      <trkpt lat="48.068455" lon="7.802588">
        <ele>199.062390</ele>
        <time>2025-11-04T15:16:36.146Z</time>
      </trkpt>
      <trkpt lat="48.068435" lon="7.801856">
        <ele>199.464101</ele>
        <time>2025-11-04T15:16:46.975Z</time>
      </trkpt>
      <trkpt lat="48.068438" lon="7.801755">
        <ele>199.519537</ele>
        <time>2025-11-04T15:16:48.478Z</time>
      </trkpt>
      <trkpt lat="48.068431" lon="7.801615">
        <ele>199.596517</ele>
        <time>2025-11-04T15:16:50.574Z</time>
      </trkpt>
      <trkpt lat="48.068428" lon="7.801445">
        <ele>199.689765</ele>
        <time>2025-11-04T15:16:53.128Z</time>
      </trkpt>
      <trkpt lat="48.068424" lon="7.801337">
        <ele>199.749076</ele>
        <time>2025-11-04T15:16:54.758Z</time>
      </trkpt>
      <trkpt lat="48.068119" lon="7.799845">
        <ele>200.493487</ele>
        <time>2025-11-04T15:17:18.466Z</time>
      </trkpt>
      <trkpt lat="48.068055" lon="7.799526">
        <ele>200.537002</ele>
        <time>2025-11-04T15:17:23.361Z</time>
      </trkpt>
      <trkpt lat="48.068025" lon="7.799353">
        <ele>200.560353</ele>
        <time>2025-11-04T15:17:25.972Z</time>
      </trkpt>
      <trkpt lat="48.067727" lon="7.799421">
        <ele>200.619290</ele>
        <time>2025-11-04T15:17:32.450Z</time>
      </trkpt>
      <trkpt lat="48.067663" lon="7.799436">
        <ele>200.631955</ele>
        <time>2025-11-04T15:17:33.836Z</time>
      </trkpt>
      <trkpt lat="48.067632" lon="7.799553">
        <ele>200.648399</ele>
        <time>2025-11-04T15:17:35.625Z</time>
      </trkpt>
      <trkpt lat="48.067278" lon="7.799706">
        <ele>200.720439</ele>
        <time>2025-11-04T15:17:43.310Z</time>
      </trkpt>
      <trkpt lat="48.066232" lon="7.800689">
        <ele>200.925041</ele>
        <time>2025-11-04T15:18:08.393Z</time>
      </trkpt>
      <trkpt lat="48.064624" lon="7.802348">
        <ele>201.888166</ele>
        <time>2025-11-04T15:18:51.324Z</time>
      </trkpt>
      <trkpt lat="48.063965" lon="7.802937">
        <ele>202.558418</ele>
        <time>2025-11-04T15:19:08.767Z</time>
      </trkpt>
      <trkpt lat="48.063326" lon="7.803372">
        <ele>203.210620</ele>
        <time>2025-11-04T15:19:24.783Z</time>
      </trkpt>
      <trkpt lat="48.062922" lon="7.803567">
        <ele>203.608998</ele>
        <time>2025-11-04T15:19:34.395Z</time>
      </trkpt>
      <trkpt lat="48.062716" lon="7.803635">
        <ele>203.806971</ele>
        <time>2025-11-04T15:19:39.145Z</time>
      </trkpt>
      <trkpt lat="48.061730" lon="7.803763">
        <ele>204.206476</ele>
        <time>2025-11-04T15:20:00.839Z</time>
      </trkpt>
      <trkpt lat="48.061385" lon="7.803854">
        <ele>204.101124</ele>
        <time>2025-11-04T15:20:08.119Z</time>
      </trkpt>
      <trkpt lat="48.061146" lon="7.804058">
        <ele>204.018377</ele>
        <time>2025-11-04T15:20:13.686Z</time>
      </trkpt>
      <trkpt lat="48.061004" lon="7.804160">
        <ele>203.971008</ele>
        <time>2025-11-04T15:20:16.967Z</time>
      </trkpt>
      <trkpt lat="48.060860" lon="7.804334">
        <ele>203.915344</ele>
        <time>2025-11-04T15:20:20.768Z</time>
      </trkpt>
      <trkpt lat="48.060716" lon="7.804583">
        <ele>203.849163</ele>
        <time>2025-11-04T15:20:25.243Z</time>
      </trkpt>
      <trkpt lat="48.060575" lon="7.804981">
        <ele>203.731583</ele>
        <time>2025-11-04T15:20:31.367Z</time>
      </trkpt>
      <trkpt lat="48.060499" lon="7.805461">
        <ele>203.556692</ele>
        <time>2025-11-04T15:20:38.081Z</time>
      </trkpt>
      <trkpt lat="48.060482" lon="7.805911">
        <ele>203.396893</ele>
        <time>2025-11-04T15:20:44.178Z</time>
      </trkpt>
      <trkpt lat="48.060546" lon="7.806291">
        <ele>203.257955</ele>
        <time>2025-11-04T15:20:49.594Z</time>
      </trkpt>
      <trkpt lat="48.060628" lon="7.806594">
        <ele>203.142056</ele>
        <time>2025-11-04T15:20:54.222Z</time>
      </trkpt>
      <trkpt lat="48.060679" lon="7.806727">
        <ele>203.087692</ele>
        <time>2025-11-04T15:20:56.411Z</time>
      </trkpt>
      <trkpt lat="48.060829" lon="7.807057">
        <ele>202.946199</ele>
        <time>2025-11-04T15:21:02.204Z</time>
      </trkpt>
      <trkpt lat="48.061041" lon="7.807406">
        <ele>202.869101</ele>
        <time>2025-11-04T15:21:09.229Z</time>
      </trkpt>
      <trkpt lat="48.061337" lon="7.808289">
        <ele>203.037196</ele>
        <time>2025-11-04T15:21:24.034Z</time>
      </trkpt>
      <trkpt lat="48.061515" lon="7.808947">
        <ele>203.157987</ele>
        <time>2025-11-04T15:21:34.724Z</time>
      </trkpt>
      <trkpt lat="48.061244" lon="7.809053">
        <ele>203.229304</ele>
        <time>2025-11-04T15:21:41.010Z</time>
      </trkpt>
      <trkpt lat="48.061016" lon="7.809210">
        <ele>203.293207</ele>
        <time>2025-11-04T15:21:46.612Z</time>
      </trkpt>
      <trkpt lat="48.060372" lon="7.809461">
        <ele>203.662829</ele>
        <time>2025-11-04T15:22:01.531Z</time>
      </trkpt>
      <trkpt lat="48.059840" lon="7.809776">
        <ele>203.985427</ele>
        <time>2025-11-04T15:22:14.565Z</time>
      </trkpt>
      <trkpt lat="48.059499" lon="7.810044">
        <ele>204.202609</ele>
        <time>2025-11-04T15:22:23.489Z</time>
      </trkpt>
      <trkpt lat="48.058728" lon="7.810649">
        <ele>204.873914</ele>
        <time>2025-11-04T15:22:43.659Z</time>
      </trkpt>
      <trkpt lat="48.058706" lon="7.810842">
        <ele>204.982590</ele>
        <time>2025-11-04T15:22:47.312Z</time>
      </trkpt>
      <trkpt lat="48.058616" lon="7.810914">
        <ele>205.067348</ele>
        <time>2025-11-04T15:22:49.606Z</time>
      </trkpt>
      <trkpt lat="48.058496" lon="7.810999">
        <ele>205.177611</ele>
        <time>2025-11-04T15:22:52.605Z</time>
      </trkpt>
      <trkpt lat="48.058565" lon="7.811096">
        <ele>205.256241</ele>
        <time>2025-11-04T15:22:54.739Z</time>
      </trkpt>
      <trkpt lat="48.058631" lon="7.811266">
        <ele>205.365368</ele>
        <time>2025-11-04T15:22:57.680Z</time>
      </trkpt>
      <trkpt lat="48.058663" lon="7.811495">
        <ele>205.495229</ele>
        <time>2025-11-04T15:23:01.129Z</time>
      </trkpt>
      <trkpt lat="48.058663" lon="7.811539">
        <ele>205.519652</ele>
        <time>2025-11-04T15:23:01.772Z</time>
      </trkpt>
      <trkpt lat="48.058658" lon="7.811734">
        <ele>205.627971</ele>
        <time>2025-11-04T15:23:04.639Z</time>
      </trkpt>
      <trkpt lat="48.058656" lon="7.812019">
        <ele>205.786176</ele>
        <time>2025-11-04T15:23:08.806Z</time>
      </trkpt>
      <trkpt lat="48.058655" lon="7.812116">
        <ele>205.825527</ele>
        <time>2025-11-04T15:23:10.230Z</time>
      </trkpt>
      <trkpt lat="48.058655" lon="7.812289">
        <ele>205.880961</ele>
        <time>2025-11-04T15:23:12.760Z</time>
      </trkpt>
      <trkpt lat="48.058655" lon="7.812331">
        <ele>205.894419</ele>
        <time>2025-11-04T15:23:13.394Z</time>
      </trkpt>
      <trkpt lat="48.058648" lon="7.812552">
        <ele>205.965312</ele>
        <time>2025-11-04T15:23:16.659Z</time>
      </trkpt>
      <trkpt lat="48.058646" lon="7.812987">
        <ele>206.104700</ele>
        <time>2025-11-04T15:23:23.112Z</time>
      </trkpt>
      <trkpt lat="48.058645" lon="7.813202">
        <ele>206.173593</ele>
        <time>2025-11-04T15:23:26.309Z</time>
      </trkpt>
      <trkpt lat="48.057406" lon="7.813156">
        <ele>206.760335</ele>
        <time>2025-11-04T15:23:53.223Z</time>
      </trkpt>
      <trkpt lat="48.057280" lon="7.813187">
        <ele>206.816990</ele>
        <time>2025-11-04T15:23:55.941Z</time>
      </trkpt>
      <trkpt lat="48.057043" lon="7.813328">
        <ele>206.930153</ele>
        <time>2025-11-04T15:24:01.328Z</time>
      </trkpt>
      <trkpt lat="48.056198" lon="7.813990">
        <ele>207.353359</ele>
        <time>2025-11-04T15:24:21.837Z</time>
      </trkpt>
      <trkpt lat="48.055959" lon="7.814145">
        <ele>207.476054</ele>
        <time>2025-11-04T15:24:27.686Z</time>
      </trkpt>
      <trkpt lat="48.055612" lon="7.814240">
        <ele>208.019769</ele>
        <time>2025-11-04T15:24:35.790Z</time>
      </trkpt>
      <trkpt lat="48.055199" lon="7.814300">
        <ele>208.659323</ele>
        <time>2025-11-04T15:24:45.413Z</time>
      </trkpt>
      <trkpt lat="48.055092" lon="7.814289">
        <ele>208.824632</ele>
        <time>2025-11-04T15:24:47.939Z</time>
      </trkpt>
      <trkpt lat="48.054550" lon="7.814122">
        <ele>209.677554</ele>
        <time>2025-11-04T15:25:00.849Z</time>
      </trkpt>
      <trkpt lat="48.053558" lon="7.813757">
        <ele>210.822596</ele>
        <time>2025-11-04T15:25:24.191Z</time>
      </trkpt>
      <trkpt lat="48.053271" lon="7.813688">
        <ele>211.080812</ele>
        <time>2025-11-04T15:25:30.643Z</time>
      </trkpt>
      <trkpt lat="48.052546" lon="7.813591">
        <ele>211.727408</ele>
        <time>2025-11-04T15:25:46.621Z</time>
      </trkpt>
      <trkpt lat="48.051432" lon="7.813308">
        <ele>212.159289</ele>
        <time>2025-11-04T15:26:11.231Z</time>
      </trkpt>
      <trkpt lat="48.051106" lon="7.813284">
        <ele>212.263986</ele>
        <time>2025-11-04T15:26:18.319Z</time>
      </trkpt>
      <trkpt lat="48.050551" lon="7.813336">
        <ele>212.385261</ele>
        <time>2025-11-04T15:26:30.221Z</time>
      </trkpt>
      <trkpt lat="48.050342" lon="7.813311">
        <ele>212.321609</ele>
        <time>2025-11-04T15:26:34.643Z</time>
      </trkpt>
      <trkpt lat="48.049710" lon="7.813113">
        <ele>212.125581</ele>
        <time>2025-11-04T15:26:47.900Z</time>
      </trkpt>
      <trkpt lat="48.049360" lon="7.812952">
        <ele>212.014416</ele>
        <time>2025-11-04T15:26:55.228Z</time>
      </trkpt>
      <trkpt lat="48.048473" lon="7.812455">
        <ele>211.761292</ele>
        <time>2025-11-04T15:27:14.412Z</time>
      </trkpt>
      <trkpt lat="48.047591" lon="7.811858">
        <ele>211.539601</ele>
        <time>2025-11-04T15:27:34.527Z</time>
      </trkpt>
      <trkpt lat="48.045933" lon="7.811382">
        <ele>211.618258</ele>
        <time>2025-11-04T15:28:09.836Z</time>
      </trkpt>
      <trkpt lat="48.045941" lon="7.811450">
        <ele>211.623966</ele>
        <time>2025-11-04T15:28:10.854Z</time>
      </trkpt>
      <trkpt lat="48.045933" lon="7.811382">
        <ele>211.629675</ele>
        <time>2025-11-04T15:28:11.856Z</time>
      </trkpt>
      <trkpt lat="48.045882" lon="7.810837">
        <ele>211.675175</ele>
        <time>2025-11-04T15:28:20.138Z</time>
      </trkpt>
      <trkpt lat="48.046315" lon="7.810500">
        <ele>211.766861</ele>
        <time>2025-11-04T15:28:31.221Z</time>
      </trkpt>
      <trkpt lat="48.046382" lon="7.810421">
        <ele>211.783110</ele>
        <time>2025-11-04T15:28:33.105Z</time>
      </trkpt>
      <trkpt lat="48.046471" lon="7.810187">
        <ele>211.817390</ele>
        <time>2025-11-04T15:28:37.060Z</time>
      </trkpt>
      <trkpt lat="48.046575" lon="7.809739">
        <ele>211.877774</ele>
        <time>2025-11-04T15:28:44.075Z</time>
      </trkpt>
      <trkpt lat="48.046639" lon="7.809527">
        <ele>211.907393</ele>
        <time>2025-11-04T15:28:47.569Z</time>
      </trkpt>
      <trkpt lat="48.046777" lon="7.809345">
        <ele>211.942434</ele>
        <time>2025-11-04T15:28:51.682Z</time>
      </trkpt>
      <trkpt lat="48.046882" lon="7.809179">
        <ele>211.971532</ele>
        <time>2025-11-04T15:28:55.098Z</time>
      </trkpt>
      <trkpt lat="48.046973" lon="7.808950">
        <ele>212.005452</ele>
        <time>2025-11-04T15:28:59.055Z</time>
      </trkpt>
      <trkpt lat="48.047024" lon="7.808757">
        <ele>211.997047</ele>
        <time>2025-11-04T15:29:02.082Z</time>
      </trkpt>
      <trkpt lat="48.047111" lon="7.808472">
        <ele>211.918762</ele>
        <time>2025-11-04T15:29:06.503Z</time>
      </trkpt>
      <trkpt lat="48.047080" lon="7.808344">
        <ele>211.884745</ele>
        <time>2025-11-04T15:29:08.288Z</time>
      </trkpt>
      <trkpt lat="48.047199" lon="7.807890">
        <ele>211.762899</ele>
        <time>2025-11-04T15:29:14.684Z</time>
      </trkpt>
      <trkpt lat="48.047364" lon="7.807048">
        <ele>211.543661</ele>
        <time>2025-11-04T15:29:26.928Z</time>
      </trkpt>
      <trkpt lat="48.047640" lon="7.805620">
        <ele>211.016937</ele>
        <time>2025-11-04T15:29:46.933Z</time>
      </trkpt>
      <trkpt lat="48.047926" lon="7.804078">
        <ele>210.263500</ele>
        <time>2025-11-04T15:30:07.828Z</time>
      </trkpt>
      <trkpt lat="48.048048" lon="7.803314">
        <ele>209.920566</ele>
        <time>2025-11-04T15:30:18.398Z</time>
      </trkpt>
      <trkpt lat="48.048268" lon="7.801820">
        <ele>209.303653</ele>
        <time>2025-11-04T15:30:38.884Z</time>
      </trkpt>
      <trkpt lat="48.048343" lon="7.801504">
        <ele>209.168431</ele>
        <time>2025-11-04T15:30:43.349Z</time>
      </trkpt>
      <trkpt lat="48.048353" lon="7.801062">
        <ele>208.990779</ele>
        <time>2025-11-04T15:30:49.281Z</time>
      </trkpt>
      <trkpt lat="48.048331" lon="7.800709">
        <ele>208.864206</ele>
        <time>2025-11-04T15:30:54.081Z</time>
      </trkpt>
      <trkpt lat="48.048364" lon="7.800351">
        <ele>208.735186</ele>
        <time>2025-11-04T15:30:58.956Z</time>
      </trkpt>
      <trkpt lat="48.048374" lon="7.800261">
        <ele>208.702614</ele>
        <time>2025-11-04T15:31:00.155Z</time>
      </trkpt>
      <trkpt lat="48.048391" lon="7.800093">
        <ele>208.641952</ele>
        <time>2025-11-04T15:31:02.423Z</time>
      </trkpt>
      <trkpt lat="48.048334" lon="7.799278">
        <ele>208.349397</ele>
        <time>2025-11-04T15:31:13.362Z</time>
      </trkpt>
      <trkpt lat="48.048427" lon="7.798810">
        <ele>208.175089</ele>
        <time>2025-11-04T15:31:19.980Z</time>
      </trkpt>
      <trkpt lat="48.048438" lon="7.798688">
        <ele>208.131139</ele>
        <time>2025-11-04T15:31:21.662Z</time>
      </trkpt>
      <trkpt lat="48.049020" lon="7.796277">
        <ele>207.493452</ele>
        <time>2025-11-04T15:31:56.516Z</time>
      </trkpt>
      <trkpt lat="48.049079" lon="7.796219">
        <ele>207.468513</ele>
        <time>2025-11-04T15:31:57.994Z</time>
      </trkpt>
      <trkpt lat="48.049134" lon="7.796233">
        <ele>207.448805</ele>
        <time>2025-11-04T15:31:59.148Z</time>
      </trkpt>
      <trkpt lat="48.049161" lon="7.796236">
        <ele>207.439241</ele>
        <time>2025-11-04T15:31:59.721Z</time>
      </trkpt>
      <trkpt lat="48.049203" lon="7.796051">
        <ele>207.393630</ele>
        <time>2025-11-04T15:32:02.441Z</time>
      </trkpt>
      <trkpt lat="48.049214" lon="7.795848">
        <ele>207.349104</ele>
        <time>2025-11-04T15:32:05.280Z</time>
      </trkpt>
      <trkpt lat="48.048970" lon="7.794909">
        <ele>207.128852</ele>
        <time>2025-11-04T15:32:28.588Z</time>
      </trkpt>
      <trkpt lat="48.048891" lon="7.794559">
        <ele>207.048089</ele>
        <time>2025-11-04T15:32:37.139Z</time>
      </trkpt>
      <trkpt lat="48.048551" lon="7.793718">
        <ele>206.833217</ele>
        <time>2025-11-04T15:32:59.894Z</time>
      </trkpt>
      <trkpt lat="48.048410" lon="7.792686">
        <ele>206.606922</ele>
        <time>2025-11-04T15:33:24.158Z</time>
      </trkpt>
      <trkpt lat="48.048414" lon="7.792530">
        <ele>206.573443</ele>
        <time>2025-11-04T15:33:27.750Z</time>
      </trkpt>
      <trkpt lat="48.048447" lon="7.792378">
        <ele>206.539171</ele>
        <time>2025-11-04T15:33:31.431Z</time>
      </trkpt>
      <trkpt lat="48.049074" lon="7.790712">
        <ele>206.275279</ele>
        <time>2025-11-04T15:34:15.692Z</time>
      </trkpt>
      <trkpt lat="48.049130" lon="7.790653">
        <ele>206.283653</ele>
        <time>2025-11-04T15:34:18.059Z</time>
      </trkpt>
      <trkpt lat="48.049191" lon="7.790642">
        <ele>206.291165</ele>
        <time>2025-11-04T15:34:20.160Z</time>
      </trkpt>
      <trkpt lat="48.049485" lon="7.790759">
        <ele>206.328361</ele>
        <time>2025-11-04T15:34:30.682Z</time>
      </trkpt>
      <trkpt lat="48.049853" lon="7.790287">
        <ele>206.387627</ele>
        <time>2025-11-04T15:34:47.407Z</time>
      </trkpt>
      <trkpt lat="48.050194" lon="7.789412">
        <ele>206.395260</ele>
        <time>2025-11-04T15:35:10.743Z</time>
      </trkpt>
      <trkpt lat="48.050222" lon="7.789339">
        <ele>206.368876</ele>
        <time>2025-11-04T15:35:12.691Z</time>
      </trkpt>
      <trkpt lat="48.049916" lon="7.788262">
        <ele>206.002032</ele>
        <time>2025-11-04T15:35:28.713Z</time>
      </trkpt>
      <trkpt lat="48.049870" lon="7.788107">
        <ele>205.948869</ele>
        <time>2025-11-04T15:35:30.997Z</time>
      </trkpt>
      <trkpt lat="48.049847" lon="7.788028">
        <ele>205.921858</ele>
        <time>2025-11-04T15:35:32.165Z</time>
      </trkpt>
      <trkpt lat="48.049292" lon="7.786140">
        <ele>205.066886</ele>
        <time>2025-11-04T15:35:58.896Z</time>
      </trkpt>
      <trkpt lat="48.049279" lon="7.786094">
        <ele>205.041522</ele>
        <time>2025-11-04T15:35:59.543Z</time>
      </trkpt>
      <trkpt lat="48.049239" lon="7.785937">
        <ele>204.956190</ele>
        <time>2025-11-04T15:36:01.680Z</time>
      </trkpt>
      <trkpt lat="48.049228" lon="7.785887">
        <ele>204.929456</ele>
        <time>2025-11-04T15:36:02.365Z</time>
      </trkpt>
      <trkpt lat="48.048932" lon="7.785993">
        <ele>204.698218</ele>
        <time>2025-11-04T15:36:10.397Z</time>
      </trkpt>
      <trkpt lat="48.048789" lon="7.785784">
        <ele>204.546328</ele>
        <time>2025-11-04T15:36:15.741Z</time>
      </trkpt>
      <trkpt lat="48.048496" lon="7.785390">
        <ele>204.247003</ele>
        <time>2025-11-04T15:36:26.400Z</time>
      </trkpt>
      <trkpt lat="48.048307" lon="7.785124">
        <ele>204.323319</ele>
        <time>2025-11-04T15:36:33.524Z</time>
      </trkpt>
      <trkpt lat="48.048285" lon="7.785049">
        <ele>204.340042</ele>
        <time>2025-11-04T15:36:35.035Z</time>
      </trkpt>
      <trkpt lat="48.048262" lon="7.785012">
        <ele>204.350357</ele>
        <time>2025-11-04T15:36:35.769Z</time>
      </trkpt>
      <trkpt lat="48.048212" lon="7.784946">
        <ele>204.370724</ele>
        <time>2025-11-04T15:36:37.169Z</time>
      </trkpt>
      <trkpt lat="48.048177" lon="7.784883">
        <ele>204.387449</ele>
        <time>2025-11-04T15:36:38.363Z</time>
      </trkpt>
      <trkpt lat="48.048129" lon="7.784809">
        <ele>204.408501</ele>
        <time>2025-11-04T15:36:39.842Z</time>
      </trkpt>
      <trkpt lat="48.048094" lon="7.784726">
        <ele>204.428537</ele>
        <time>2025-11-04T15:36:41.243Z</time>
      </trkpt>
      <trkpt lat="48.048090" lon="7.784712">
        <ele>204.431646</ele>
        <time>2025-11-04T15:36:41.475Z</time>
      </trkpt>
      <trkpt lat="48.048084" lon="7.784692">
        <ele>204.436122</ele>
        <time>2025-11-04T15:36:41.801Z</time>
      </trkpt>
      <trkpt lat="48.048105" lon="7.784695">
        <ele>204.442565</ele>
        <time>2025-11-04T15:36:42.258Z</time>
      </trkpt>
      <trkpt lat="48.048084" lon="7.784692">
        <ele>204.449008</ele>
        <time>2025-11-04T15:36:42.707Z</time>
      </trkpt>
      <trkpt lat="48.048055" lon="7.784693">
        <ele>204.457867</ele>
        <time>2025-11-04T15:36:43.325Z</time>
      </trkpt>
      <trkpt lat="48.048002" lon="7.784750">
        <ele>204.477804</ele>
        <time>2025-11-04T15:36:44.742Z</time>
      </trkpt>
      <trkpt lat="48.047984" lon="7.784683">
        <ele>204.492547</ele>
        <time>2025-11-04T15:36:45.813Z</time>
      </trkpt>
      <trkpt lat="48.047928" lon="7.784696">
        <ele>204.509855</ele>
        <time>2025-11-04T15:36:47.017Z</time>
      </trkpt>
      <trkpt lat="48.047800" lon="7.784863">
        <ele>204.561729</ele>
        <time>2025-11-04T15:36:50.748Z</time>
      </trkpt>
      <trkpt lat="48.047775" lon="7.784896">
        <ele>204.571912</ele>
        <time>2025-11-04T15:36:51.476Z</time>
      </trkpt>
      <trkpt lat="48.047636" lon="7.785080">
        <ele>204.628602</ele>
        <time>2025-11-04T15:36:55.611Z</time>
      </trkpt>
      <trkpt lat="48.047563" lon="7.785195">
        <ele>204.660981</ele>
        <time>2025-11-04T15:36:57.935Z</time>
      </trkpt>
      <trkpt lat="48.047532" lon="7.785135">
        <ele>204.676464</ele>
        <time>2025-11-04T15:36:59.065Z</time>
      </trkpt>
      <trkpt lat="48.047525" lon="7.785120">
        <ele>204.680199</ele>
        <time>2025-11-04T15:36:59.345Z</time>
      </trkpt>
      <trkpt lat="48.047454" lon="7.784978">
        <ele>204.716404</ele>
        <time>2025-11-04T15:37:01.959Z</time>
      </trkpt>
      <trkpt lat="48.047390" lon="7.784866">
        <ele>204.746488</ele>
        <time>2025-11-04T15:37:04.120Z</time>
      </trkpt>
      <trkpt lat="48.047172" lon="7.784547">
        <ele>204.803911</ele>
        <time>2025-11-04T15:37:10.858Z</time>
      </trkpt>
      <trkpt lat="48.046936" lon="7.784419">
        <ele>204.820240</ele>
        <time>2025-11-04T15:37:16.384Z</time>
      </trkpt>
      <trkpt lat="48.046817" lon="7.784358">
        <ele>204.828423</ele>
        <time>2025-11-04T15:37:19.121Z</time>
      </trkpt>
      <trkpt lat="48.046742" lon="7.784320">
        <ele>204.833574</ele>
        <time>2025-11-04T15:37:20.837Z</time>
      </trkpt>
      <trkpt lat="48.046429" lon="7.784153">
        <ele>204.855190</ele>
        <time>2025-11-04T15:37:28.010Z</time>
      </trkpt>
      <trkpt lat="48.045937" lon="7.783900">
        <ele>204.889032</ele>
        <time>2025-11-04T15:37:39.011Z</time>
      </trkpt>
      <trkpt lat="48.045895" lon="7.783845">
        <ele>204.892663</ele>
        <time>2025-11-04T15:37:40.176Z</time>
      </trkpt>
      <trkpt lat="48.046009" lon="7.782789">
        <ele>204.556341</ele>
        <time>2025-11-04T15:37:54.337Z</time>
      </trkpt>
      <trkpt lat="48.046148" lon="7.781702">
        <ele>203.944951</ele>
        <time>2025-11-04T15:38:08.399Z</time>
      </trkpt>
      <trkpt lat="48.046191" lon="7.781509">
        <ele>203.832565</ele>
        <time>2025-11-04T15:38:11.045Z</time>
      </trkpt>
      <trkpt lat="48.046322" lon="7.781174">
        <ele>203.618163</ele>
        <time>2025-11-04T15:38:16.122Z</time>
      </trkpt>
      <trkpt lat="48.046619" lon="7.780815">
        <ele>203.426802</ele>
        <time>2025-11-04T15:38:23.663Z</time>
      </trkpt>
      <trkpt lat="48.046753" lon="7.780671">
        <ele>203.428882</ele>
        <time>2025-11-04T15:38:27.038Z</time>
      </trkpt>
      <trkpt lat="48.046861" lon="7.780589">
        <ele>203.430408</ele>
        <time>2025-11-04T15:38:29.578Z</time>
      </trkpt>
      <trkpt lat="48.046948" lon="7.780370">
        <ele>203.432555</ele>
        <time>2025-11-04T15:38:33.212Z</time>
      </trkpt>
      <trkpt lat="48.046926" lon="7.780206">
        <ele>203.433964</ele>
        <time>2025-11-04T15:38:35.632Z</time>
      </trkpt>
      <trkpt lat="48.046944" lon="7.779737">
        <ele>203.437922</ele>
        <time>2025-11-04T15:38:42.518Z</time>
      </trkpt>
      <trkpt lat="48.046628" lon="7.779353">
        <ele>203.443054</ele>
        <time>2025-11-04T15:38:51.480Z</time>
      </trkpt>
      <trkpt lat="48.046247" lon="7.778889">
        <ele>203.373792</ele>
        <time>2025-11-04T15:39:01.808Z</time>
      </trkpt>
      <trkpt lat="48.046094" lon="7.778703">
        <ele>203.261938</ele>
        <time>2025-11-04T15:39:05.915Z</time>
      </trkpt>
      <trkpt lat="48.045883" lon="7.778076">
        <ele>202.995701</ele>
        <time>2025-11-04T15:39:15.487Z</time>
      </trkpt>
      <trkpt lat="48.045874" lon="7.778047">
        <ele>202.983575</ele>
        <time>2025-11-04T15:39:15.906Z</time>
      </trkpt>
      <trkpt lat="48.045734" lon="7.777607">
        <ele>202.798754</ele>
        <time>2025-11-04T15:39:22.316Z</time>
      </trkpt>
      <trkpt lat="48.045727" lon="7.777584">
        <ele>202.789169</ele>
        <time>2025-11-04T15:39:22.650Z</time>
      </trkpt>
      <trkpt lat="48.045721" lon="7.777549">
        <ele>202.775465</ele>
        <time>2025-11-04T15:39:23.132Z</time>
      </trkpt>
      <trkpt lat="48.045710" lon="7.777398">
        <ele>202.717854</ele>
        <time>2025-11-04T15:39:25.098Z</time>
      </trkpt>
      <trkpt lat="48.045773" lon="7.776501">
        <ele>202.360976</ele>
        <time>2025-11-04T15:39:36.695Z</time>
      </trkpt>
      <trkpt lat="48.046112" lon="7.774701">
        <ele>201.447652</ele>
        <time>2025-11-04T15:40:01.355Z</time>
      </trkpt>
      <trkpt lat="48.046179" lon="7.774284">
        <ele>201.238194</ele>
        <time>2025-11-04T15:40:07.118Z</time>
      </trkpt>
      <trkpt lat="48.046175" lon="7.774124">
        <ele>201.159997</ele>
        <time>2025-11-04T15:40:09.288Z</time>
      </trkpt>
      <trkpt lat="48.046042" lon="7.773713">
        <ele>201.041241</ele>
        <time>2025-11-04T15:40:15.485Z</time>
      </trkpt>
      <trkpt lat="48.045997" lon="7.773495">
        <ele>200.995737</ele>
        <time>2025-11-04T15:40:18.608Z</time>
      </trkpt>
      <trkpt lat="48.045915" lon="7.771703">
        <ele>200.637497</ele>
        <time>2025-11-04T15:40:43.338Z</time>
      </trkpt>
      <trkpt lat="48.045929" lon="7.771587">
        <ele>200.613987</ele>
        <time>2025-11-04T15:40:44.978Z</time>
      </trkpt>
      <trkpt lat="48.046175" lon="7.770099">
        <ele>200.471852</ele>
        <time>2025-11-04T15:41:06.124Z</time>
      </trkpt>
      <trkpt lat="48.046643" lon="7.768692">
        <ele>200.422602</ele>
        <time>2025-11-04T15:41:28.094Z</time>
      </trkpt>
      <trkpt lat="48.046430" lon="7.768561">
        <ele>200.506975</ele>
        <time>2025-11-04T15:41:33.030Z</time>
      </trkpt>
      <trkpt lat="48.044774" lon="7.767635">
        <ele>201.086401</ele>
        <time>2025-11-04T15:42:11.853Z</time>
      </trkpt>
      <trkpt lat="48.044647" lon="7.767604">
        <ele>201.108514</ele>
        <time>2025-11-04T15:42:14.657Z</time>
      </trkpt>
      <trkpt lat="48.044668" lon="7.767450">
        <ele>201.126571</ele>
        <time>2025-11-04T15:42:16.955Z</time>
      </trkpt>
      <trkpt lat="48.045505" lon="7.765661">
        <ele>201.209089</ele>
        <time>2025-11-04T15:42:47.874Z</time>
      </trkpt>
      <trkpt lat="48.046084" lon="7.764265">
        <ele>200.646059</ele>
        <time>2025-11-04T15:43:09.987Z</time>
      </trkpt>
      <trkpt lat="48.046818" lon="7.762158">
        <ele>199.587843</ele>
        <time>2025-11-04T15:43:41.143Z</time>
      </trkpt>
      <trkpt lat="48.047991" lon="7.758305">
        <ele>197.753756</ele>
        <time>2025-11-04T15:44:37.756Z</time>
      </trkpt>
      <trkpt lat="48.048175" lon="7.757813">
        <ele>197.495114</ele>
        <time>2025-11-04T15:44:45.261Z</time>
      </trkpt>
      <trkpt lat="48.048554" lon="7.756926">
        <ele>197.012153</ele>
        <time>2025-11-04T15:44:59.206Z</time>
      </trkpt>
      <trkpt lat="48.048870" lon="7.756269">
        <ele>196.727388</ele>
        <time>2025-11-04T15:45:09.903Z</time>
      </trkpt>
      <trkpt lat="48.049385" lon="7.755360">
        <ele>196.543631</ele>
        <time>2025-11-04T15:45:25.996Z</time>
      </trkpt>
      <trkpt lat="48.049837" lon="7.754718">
        <ele>196.399841</ele>
        <time>2025-11-04T15:45:39.095Z</time>
      </trkpt>
      <trkpt lat="48.050023" lon="7.754387">
        <ele>196.405040</ele>
        <time>2025-11-04T15:45:45.322Z</time>
      </trkpt>
      <trkpt lat="48.050750" lon="7.753282">
        <ele>196.909129</ele>
        <time>2025-11-04T15:46:08.122Z</time>
      </trkpt>
      <trkpt lat="48.051208" lon="7.752469">
        <ele>197.239815</ele>
        <time>2025-11-04T15:46:23.866Z</time>
      </trkpt>
      <trkpt lat="48.051666" lon="7.751419">
        <ele>197.389651</ele>
        <time>2025-11-04T15:46:41.968Z</time>
      </trkpt>
      <trkpt lat="48.051926" lon="7.750818">
        <ele>197.475204</ele>
        <time>2025-11-04T15:46:52.108Z</time>
      </trkpt>
      <trkpt lat="48.051972" lon="7.750638">
        <ele>197.498234</ele>
        <time>2025-11-04T15:46:54.859Z</time>
      </trkpt>
      <trkpt lat="48.052042" lon="7.750610">
        <ele>197.511188</ele>
        <time>2025-11-04T15:46:56.388Z</time>
      </trkpt>
      <trkpt lat="48.052061" lon="7.750686">
        <ele>197.520885</ele>
        <time>2025-11-04T15:46:57.538Z</time>
      </trkpt>
      <trkpt lat="48.051803" lon="7.751601">
        <ele>197.438885</ele>
        <time>2025-11-04T15:47:11.330Z</time>
      </trkpt>
      <trkpt lat="48.051762" lon="7.751663">
        <ele>197.425239</ele>
        <time>2025-11-04T15:47:12.539Z</time>
      </trkpt>
      <trkpt lat="48.051673" lon="7.751703">
        <ele>197.403486</ele>
        <time>2025-11-04T15:47:14.467Z</time>
      </trkpt>
      <trkpt lat="48.051593" lon="7.751633">
        <ele>197.381791</ele>
        <time>2025-11-04T15:47:16.399Z</time>
      </trkpt>
      <trkpt lat="48.051527" lon="7.751472">
        <ele>197.352239</ele>
        <time>2025-11-04T15:47:19.010Z</time>
      </trkpt>
      <trkpt lat="48.051519" lon="7.751167">
        <ele>197.304478</ele>
        <time>2025-11-04T15:47:23.225Z</time>
      </trkpt>
      <trkpt lat="48.051810" lon="7.750228">
        <ele>197.142526</ele>
        <time>2025-11-04T15:47:37.464Z</time>
      </trkpt>
      <trkpt lat="48.052007" lon="7.749416">
        <ele>196.933029</ele>
        <time>2025-11-04T15:47:49.124Z</time>
      </trkpt>
      <trkpt lat="48.052266" lon="7.747974">
        <ele>196.559649</ele>
        <time>2025-11-04T15:48:09.439Z</time>
      </trkpt>
      <trkpt lat="48.052749" lon="7.744726">
        <ele>195.944306</ele>
        <time>2025-11-04T15:48:55.283Z</time>
      </trkpt>
      <trkpt lat="48.052984" lon="7.742903">
        <ele>195.242741</ele>
        <time>2025-11-04T15:49:20.885Z</time>
      </trkpt>
      <trkpt lat="48.052997" lon="7.742773">
        <ele>195.193070</ele>
        <time>2025-11-04T15:49:22.687Z</time>
      </trkpt>
      <trkpt lat="48.053770" lon="7.739893">
        <ele>192.621833</ele>
        <time>2025-11-04T15:50:00.616Z</time>
      </trkpt>
      <trkpt lat="48.054204" lon="7.738561">
        <ele>192.172647</ele>
        <time>2025-11-04T15:50:21.363Z</time>
      </trkpt>
      <trkpt lat="48.054797" lon="7.736836">
        <ele>191.795925</ele>
        <time>2025-11-04T15:50:49.757Z</time>
      </trkpt>
      <trkpt lat="48.054797" lon="7.736754">
        <ele>191.793057</ele>
        <time>2025-11-04T15:50:50.964Z</time>
      </trkpt>
      <trkpt lat="48.054748" lon="7.736617">
        <ele>191.787622</ele>
        <time>2025-11-04T15:50:53.309Z</time>
      </trkpt>
      <trkpt lat="48.054551" lon="7.736417">
        <ele>191.775163</ele>
        <time>2025-11-04T15:50:58.592Z</time>
      </trkpt>
      <trkpt lat="48.054131" lon="7.736331">
        <ele>191.752980</ele>
        <time>2025-11-04T15:51:07.865Z</time>
      </trkpt>
      <trkpt lat="48.054139" lon="7.736121">
        <ele>191.745622</ele>
        <time>2025-11-04T15:51:10.896Z</time>
      </trkpt>
      <trkpt lat="48.054196" lon="7.735913">
        <ele>191.737759</ele>
        <time>2025-11-04T15:51:14.112Z</time>
      </trkpt>
      <trkpt lat="48.054091" lon="7.735802">
        <ele>191.731031</ele>
        <time>2025-11-04T15:51:16.772Z</time>
      </trkpt>
      <trkpt lat="48.053408" lon="7.735109">
        <ele>191.631943</ele>
        <time>2025-11-04T15:51:33.721Z</time>
      </trkpt>
      <trkpt lat="48.053323" lon="7.734907">
        <ele>191.611158</ele>
        <time>2025-11-04T15:51:37.001Z</time>
      </trkpt>
      <trkpt lat="48.053273" lon="7.734804">
        <ele>191.600072</ele>
        <time>2025-11-04T15:51:38.770Z</time>
      </trkpt>
      <trkpt lat="48.053204" lon="7.734792">
        <ele>191.591023</ele>
        <time>2025-11-04T15:51:40.170Z</time>
      </trkpt>
      <trkpt lat="48.053020" lon="7.734738">
        <ele>191.566595</ele>
        <time>2025-11-04T15:51:43.983Z</time>
      </trkpt>
      <trkpt lat="48.052396" lon="7.734113">
        <ele>191.581716</ele>
        <time>2025-11-04T15:52:00.587Z</time>
      </trkpt>
      <trkpt lat="48.051679" lon="7.733001">
        <ele>192.129005</ele>
        <time>2025-11-04T15:52:24.126Z</time>
      </trkpt>
      <trkpt lat="48.051644" lon="7.732947">
        <ele>192.155649</ele>
        <time>2025-11-04T15:52:25.277Z</time>
      </trkpt>
      <trkpt lat="48.051586" lon="7.732857">
        <ele>192.199933</ele>
        <time>2025-11-04T15:52:27.200Z</time>
      </trkpt>
      <trkpt lat="48.051343" lon="7.732476">
        <ele>192.386473</ele>
        <time>2025-11-04T15:52:35.208Z</time>
      </trkpt>
      <trkpt lat="48.051251" lon="7.732315">
        <ele>192.470317</ele>
        <time>2025-11-04T15:52:38.432Z</time>
      </trkpt>
      <trkpt lat="48.051018" lon="7.732052">
        <ele>192.703767</ele>
        <time>2025-11-04T15:52:45.179Z</time>
      </trkpt>
      <trkpt lat="48.050882" lon="7.731902">
        <ele>192.838908</ele>
        <time>2025-11-04T15:52:49.114Z</time>
      </trkpt>
      <trkpt lat="48.050733" lon="7.731676">
        <ele>193.008617</ele>
        <time>2025-11-04T15:52:54.075Z</time>
      </trkpt>
      <trkpt lat="48.050825" lon="7.731572">
        <ele>193.100845</ele>
        <time>2025-11-04T15:52:56.752Z</time>
      </trkpt>
      <trkpt lat="48.050907" lon="7.731453">
        <ele>193.192218</ele>
        <time>2025-11-04T15:52:59.404Z</time>
      </trkpt>
      <trkpt lat="48.050981" lon="7.731274">
        <ele>193.304742</ele>
        <time>2025-11-04T15:53:02.656Z</time>
      </trkpt>
      <trkpt lat="48.050979" lon="7.731176">
        <ele>193.357161</ele>
        <time>2025-11-04T15:53:04.114Z</time>
      </trkpt>
      <trkpt lat="48.050922" lon="7.730980">
        <ele>193.471438</ele>
        <time>2025-11-04T15:53:07.283Z</time>
      </trkpt>
      <trkpt lat="48.050882" lon="7.730834">
        <ele>193.555798</ele>
        <time>2025-11-04T15:53:09.693Z</time>
      </trkpt>
      <trkpt lat="48.050856" lon="7.730744">
        <ele>193.608217</ele>
        <time>2025-11-04T15:53:11.142Z</time>
      </trkpt>
      <trkpt lat="48.050800" lon="7.730437">
        <ele>193.778354</ele>
        <time>2025-11-04T15:53:16.030Z</time>
      </trkpt>
      <trkpt lat="48.050782" lon="7.729970">
        <ele>193.899466</ele>
        <time>2025-11-04T15:53:23.215Z</time>
      </trkpt>
      <trkpt lat="48.050789" lon="7.729360">
        <ele>193.936885</ele>
        <time>2025-11-04T15:53:32.587Z</time>
      </trkpt>
      <trkpt lat="48.050796" lon="7.729185">
        <ele>193.947638</ele>
        <time>2025-11-04T15:53:35.222Z</time>
      </trkpt>
      <trkpt lat="48.050827" lon="7.728625">
        <ele>193.982103</ele>
        <time>2025-11-04T15:53:43.427Z</time>
      </trkpt>
      <trkpt lat="48.050820" lon="7.728415">
        <ele>193.994999</ele>
        <time>2025-11-04T15:53:46.424Z</time>
      </trkpt>
      <trkpt lat="48.050788" lon="7.728236">
        <ele>194.006364</ele>
        <time>2025-11-04T15:53:49.055Z</time>
      </trkpt>
      <trkpt lat="48.051111" lon="7.728069">
        <ele>194.037720</ele>
        <time>2025-11-04T15:53:55.956Z</time>
      </trkpt>
      <trkpt lat="48.051303" lon="7.727979">
        <ele>194.068352</ele>
        <time>2025-11-04T15:54:00.021Z</time>
      </trkpt>
      <trkpt lat="48.051341" lon="7.727933">
        <ele>194.079337</ele>
        <time>2025-11-04T15:54:01.023Z</time>
      </trkpt>
      <trkpt lat="48.051386" lon="7.727830">
        <ele>194.097820</ele>
        <time>2025-11-04T15:54:02.693Z</time>
      </trkpt>
      <trkpt lat="48.051398" lon="7.727720">
        <ele>194.114562</ele>
        <time>2025-11-04T15:54:04.209Z</time>
      </trkpt>
      <trkpt lat="48.051440" lon="7.727125">
        <ele>194.204436</ele>
        <time>2025-11-04T15:54:12.344Z</time>
      </trkpt>
      <trkpt lat="48.051442" lon="7.727083">
        <ele>194.210761</ele>
        <time>2025-11-04T15:54:12.929Z</time>
      </trkpt>
      <trkpt lat="48.051454" lon="7.726861">
        <ele>194.244217</ele>
        <time>2025-11-04T15:54:15.998Z</time>
      </trkpt>
      <trkpt lat="48.051454" lon="7.726718">
        <ele>194.265697</ele>
        <time>2025-11-04T15:54:17.993Z</time>
      </trkpt>
      <trkpt lat="48.051456" lon="7.726646">
        <ele>194.276522</ele>
        <time>2025-11-04T15:54:19.010Z</time>
      </trkpt>
      <trkpt lat="48.051455" lon="7.726428">
        <ele>194.309269</ele>
        <time>2025-11-04T15:54:22.158Z</time>
      </trkpt>
      <trkpt lat="48.051463" lon="7.725613">
        <ele>194.431706</ele>
        <time>2025-11-04T15:54:34.297Z</time>
      </trkpt>
      <trkpt lat="48.051216" lon="7.725540">
        <ele>194.671939</ele>
        <time>2025-11-04T15:54:40.048Z</time>
      </trkpt>
      <trkpt lat="48.051076" lon="7.725421">
        <ele>194.891090</ele>
        <time>2025-11-04T15:54:43.766Z</time>
      </trkpt>
      <trkpt lat="48.050913" lon="7.725275">
        <ele>195.149659</ele>
        <time>2025-11-04T15:54:48.198Z</time>
      </trkpt>
      <trkpt lat="48.050858" lon="7.725227">
        <ele>195.236322</ele>
        <time>2025-11-04T15:54:49.668Z</time>
      </trkpt>
      <trkpt lat="48.050230" lon="7.724660">
        <ele>196.234640</ele>
        <time>2025-11-04T15:55:06.566Z</time>
      </trkpt>
      <trkpt lat="48.050422" lon="7.724254">
        <ele>196.687107</ele>
        <time>2025-11-04T15:55:14.068Z</time>
      </trkpt>
      <trkpt lat="48.050520" lon="7.724047">
        <ele>196.921059</ele>
        <time>2025-11-04T15:55:17.865Z</time>
      </trkpt>
      <trkpt lat="48.050642" lon="7.723788">
        <ele>197.260322</ele>
        <time>2025-11-04T15:55:22.619Z</time>
      </trkpt>
      <trkpt lat="48.050863" lon="7.723321">
        <ele>197.872988</ele>
        <time>2025-11-04T15:55:31.295Z</time>
      </trkpt>
      <trkpt lat="48.051037" lon="7.722923">
        <ele>198.382197</ele>
        <time>2025-11-04T15:55:38.572Z</time>
      </trkpt>
      <trkpt lat="48.051178" lon="7.722349">
        <ele>199.036992</ele>
        <time>2025-11-04T15:55:48.043Z</time>
      </trkpt>
      <trkpt lat="48.051215" lon="7.721939">
        <ele>199.479982</ele>
        <time>2025-11-04T15:55:54.615Z</time>
      </trkpt>
      <trkpt lat="48.051205" lon="7.721640">
        <ele>199.787341</ele>
        <time>2025-11-04T15:55:59.384Z</time>
      </trkpt>
      <trkpt lat="48.051186" lon="7.721190">
        <ele>199.944112</ele>
        <time>2025-11-04T15:56:06.498Z</time>
      </trkpt>
      <trkpt lat="48.051137" lon="7.720335">
        <ele>200.242477</ele>
        <time>2025-11-04T15:56:19.584Z</time>
      </trkpt>
      <trkpt lat="48.050957" lon="7.720384">
        <ele>200.337637</ele>
        <time>2025-11-04T15:56:23.544Z</time>
      </trkpt>
      <trkpt lat="48.050316" lon="7.720557">
        <ele>200.676423</ele>
        <time>2025-11-04T15:56:36.944Z</time>
      </trkpt>
      <trkpt lat="48.049892" lon="7.720671">
        <ele>199.984767</ele>
        <time>2025-11-04T15:56:44.746Z</time>
      </trkpt>
      <trkpt lat="48.049791" lon="7.719921">
        <ele>198.926679</ele>
        <time>2025-11-04T15:56:53.197Z</time>
      </trkpt>
      <trkpt lat="48.049693" lon="7.719155">
        <ele>197.848072</ele>
        <time>2025-11-04T15:57:02.142Z</time>
      </trkpt>
      <trkpt lat="48.049639" lon="7.718734">
        <ele>197.255206</ele>
        <time>2025-11-04T15:57:07.165Z</time>
      </trkpt>
      <trkpt lat="48.049180" lon="7.718832">
        <ele>196.584255</ele>
        <time>2025-11-04T15:57:15.287Z</time>
      </trkpt>
      <trkpt lat="48.048739" lon="7.718975">
        <ele>196.035491</ele>
        <time>2025-11-04T15:57:23.295Z</time>
      </trkpt>
      <trkpt lat="48.047916" lon="7.719248">
        <ele>195.010310</ele>
        <time>2025-11-04T15:57:40.110Z</time>
      </trkpt>
      <trkpt lat="48.046534" lon="7.719570">
        <ele>195.034775</ele>
        <time>2025-11-04T15:58:08.243Z</time>
      </trkpt>
      <trkpt lat="48.045743" lon="7.719662">
        <ele>195.550532</ele>
        <time>2025-11-04T15:58:26.548Z</time>
      </trkpt>
      <trkpt lat="48.045274" lon="7.719667">
        <ele>196.400609</ele>
        <time>2025-11-04T15:58:37.493Z</time>
      </trkpt>
      <trkpt lat="48.045166" lon="7.719974">
        <ele>196.820967</ele>
        <time>2025-11-04T15:58:42.977Z</time>
      </trkpt>
      <trkpt lat="48.044865" lon="7.719831">
        <ele>197.393382</ele>
        <time>2025-11-04T15:58:50.430Z</time>
      </trkpt>
      <trkpt lat="48.044563" lon="7.719598">
        <ele>198.009277</ele>
        <time>2025-11-04T15:58:58.414Z</time>
      </trkpt>
      <trkpt lat="48.044441" lon="7.719465">
        <ele>198.282898</ele>
        <time>2025-11-04T15:59:01.931Z</time>
      </trkpt>
      <trkpt lat="48.044340" lon="7.719444">
        <ele>198.451587</ele>
        <time>2025-11-04T15:59:04.286Z</time>
      </trkpt>
      <trkpt lat="48.044246" lon="7.719442">
        <ele>198.581978</ele>
        <time>2025-11-04T15:59:06.483Z</time>
      </trkpt>
      <trkpt lat="48.044055" lon="7.719300">
        <ele>198.877814</ele>
        <time>2025-11-04T15:59:11.180Z</time>
      </trkpt>
      <trkpt lat="48.043599" lon="7.719012">
        <ele>199.564357</ele>
        <time>2025-11-04T15:59:22.488Z</time>
      </trkpt>
      <trkpt lat="48.043526" lon="7.718973">
        <ele>199.671873</ele>
        <time>2025-11-04T15:59:24.329Z</time>
      </trkpt>
      <trkpt lat="48.043165" lon="7.718813">
        <ele>200.194099</ele>
        <time>2025-11-04T15:59:33.274Z</time>
      </trkpt>
      <trkpt lat="48.042986" lon="7.718700">
        <ele>200.463578</ele>
        <time>2025-11-04T15:59:37.918Z</time>
      </trkpt>
      <trkpt lat="48.042190" lon="7.718085">
        <ele>201.920372</ele>
        <time>2025-11-04T15:59:59.375Z</time>
      </trkpt>
      <trkpt lat="48.041861" lon="7.717703">
        <ele>202.650307</ele>
        <time>2025-11-04T16:00:09.319Z</time>
      </trkpt>
      <trkpt lat="48.041510" lon="7.717111">
        <ele>203.577446</ele>
        <time>2025-11-04T16:00:21.884Z</time>
      </trkpt>
      <trkpt lat="48.041262" lon="7.716773">
        <ele>204.055489</ele>
        <time>2025-11-04T16:00:29.936Z</time>
      </trkpt>
      <trkpt lat="48.040932" lon="7.716599">
        <ele>204.104482</ele>
        <time>2025-11-04T16:00:38.176Z</time>
      </trkpt>
      <trkpt lat="48.040496" lon="7.716528">
        <ele>204.165891</ele>
        <time>2025-11-04T16:00:48.279Z</time>
      </trkpt>
      <trkpt lat="48.040260" lon="7.716552">
        <ele>204.199012</ele>
        <time>2025-11-04T16:00:53.642Z</time>
      </trkpt>
      <trkpt lat="48.040379" lon="7.715714">
        <ele>204.279214</ele>
        <time>2025-11-04T16:01:05.738Z</time>
      </trkpt>
      <trkpt lat="48.040500" lon="7.715175">
        <ele>203.219104</ele>
        <time>2025-11-04T16:01:12.999Z</time>
      </trkpt>
      <trkpt lat="48.040649" lon="7.714602">
        <ele>201.427734</ele>
        <time>2025-11-04T16:01:19.845Z</time>
      </trkpt>
      <trkpt lat="48.040686" lon="7.714371">
        <ele>200.735627</ele>
        <time>2025-11-04T16:01:22.367Z</time>
      </trkpt>
      <trkpt lat="48.040681" lon="7.714187">
        <ele>200.199066</ele>
        <time>2025-11-04T16:01:24.297Z</time>
      </trkpt>
      <trkpt lat="48.040639" lon="7.713988">
        <ele>199.591039</ele>
        <time>2025-11-04T16:01:26.456Z</time>
      </trkpt>
      <trkpt lat="48.040491" lon="7.713553">
        <ele>198.168918</ele>
        <time>2025-11-04T16:01:31.410Z</time>
      </trkpt>
      <trkpt lat="48.040492" lon="7.713507">
        <ele>198.034817</ele>
        <time>2025-11-04T16:01:31.884Z</time>
      </trkpt>
      <trkpt lat="48.041135" lon="7.712564">
        <ele>194.928872</ele>
        <time>2025-11-04T16:01:45.898Z</time>
      </trkpt>
      <trkpt lat="48.041191" lon="7.712472">
        <ele>194.692670</ele>
        <time>2025-11-04T16:01:47.208Z</time>
      </trkpt>
      <trkpt lat="48.042838" lon="7.710456">
        <ele>190.685364</ele>
        <time>2025-11-04T16:02:29.101Z</time>
      </trkpt>
      <trkpt lat="48.043501" lon="7.709698">
        <ele>190.100666</ele>
        <time>2025-11-04T16:02:47.396Z</time>
      </trkpt>
      <trkpt lat="48.043908" lon="7.709216">
        <ele>190.041266</ele>
        <time>2025-11-04T16:02:58.820Z</time>
      </trkpt>
      <trkpt lat="48.044288" lon="7.708784">
        <ele>189.993453</ele>
        <time>2025-11-04T16:03:09.226Z</time>
      </trkpt>
      <trkpt lat="48.044493" lon="7.708559">
        <ele>189.967982</ele>
        <time>2025-11-04T16:03:14.732Z</time>
      </trkpt>
      <trkpt lat="48.044559" lon="7.708494">
        <ele>189.960066</ele>
        <time>2025-11-04T16:03:16.433Z</time>
      </trkpt>
      <trkpt lat="48.046914" lon="7.705735">
        <ele>189.526491</ele>
        <time>2025-11-04T16:04:21.179Z</time>
      </trkpt>
      <trkpt lat="48.046849" lon="7.705634">
        <ele>189.514162</ele>
        <time>2025-11-04T16:04:23.191Z</time>
      </trkpt>
      <trkpt lat="48.046137" lon="7.704509">
        <ele>189.389821</ele>
        <time>2025-11-04T16:04:45.604Z</time>
      </trkpt>
      <trkpt lat="48.043027" lon="7.699535">
        <ele>190.081325</ele>
        <time>2025-11-04T16:06:26.804Z</time>
      </trkpt>
      <trkpt lat="48.042350" lon="7.698460">
        <ele>190.161334</ele>
        <time>2025-11-04T16:06:48.913Z</time>
      </trkpt>
      <trkpt lat="48.041616" lon="7.697316">
        <ele>189.901875</ele>
        <time>2025-11-04T16:07:11.821Z</time>
      </trkpt>
      <trkpt lat="48.040799" lon="7.696044">
        <ele>189.607740</ele>
        <time>2025-11-04T16:07:36.413Z</time>
      </trkpt>
      <trkpt lat="48.040143" lon="7.694973">
        <ele>189.361547</ele>
        <time>2025-11-04T16:07:57.367Z</time>
      </trkpt>
      <trkpt lat="48.040064" lon="7.694801">
        <ele>189.326176</ele>
        <time>2025-11-04T16:08:00.468Z</time>
      </trkpt>
      <trkpt lat="48.040188" lon="7.694844">
        <ele>189.330648</ele>
        <time>2025-11-04T16:08:03.186Z</time>
      </trkpt>
      <trkpt lat="48.040396" lon="7.694841">
        <ele>189.392448</ele>
        <time>2025-11-04T16:08:07.671Z</time>
      </trkpt>
      <trkpt lat="48.040646" lon="7.694720">
        <ele>189.470514</ele>
        <time>2025-11-04T16:08:13.404Z</time>
      </trkpt>
      <trkpt lat="48.041309" lon="7.694254">
        <ele>189.688156</ele>
        <time>2025-11-04T16:08:29.448Z</time>
      </trkpt>
      <trkpt lat="48.041512" lon="7.693991">
        <ele>189.767947</ele>
        <time>2025-11-04T16:08:35.254Z</time>
      </trkpt>
      <trkpt lat="48.041478" lon="7.693896">
        <ele>189.789352</ele>
        <time>2025-11-04T16:08:36.791Z</time>
      </trkpt>
      <trkpt lat="48.041400" lon="7.693812">
        <ele>189.817907</ele>
        <time>2025-11-04T16:08:38.867Z</time>
      </trkpt>
      <trkpt lat="48.041423" lon="7.693773">
        <ele>189.828237</ele>
        <time>2025-11-04T16:08:39.602Z</time>
      </trkpt>
      <trkpt lat="48.041477" lon="7.693682">
        <ele>189.846447</ele>
        <time>2025-11-04T16:08:41.435Z</time>
      </trkpt>
      <trkpt lat="48.041870" lon="7.693039">
        <ele>189.876454</ele>
        <time>2025-11-04T16:08:53.906Z</time>
      </trkpt>
      <trkpt lat="48.043036" lon="7.690970">
        <ele>189.971127</ele>
        <time>2025-11-04T16:09:31.882Z</time>
      </trkpt>
      <trkpt lat="48.044259" lon="7.689083">
        <ele>190.092688</ele>
        <time>2025-11-04T16:10:09.297Z</time>
      </trkpt>
      <trkpt lat="48.044875" lon="7.688322">
        <ele>190.173022</ele>
        <time>2025-11-04T16:10:26.268Z</time>
      </trkpt>
      <trkpt lat="48.044897" lon="7.688304">
        <ele>190.175543</ele>
        <time>2025-11-04T16:10:26.791Z</time>
      </trkpt>
      <trkpt lat="48.044977" lon="7.688250">
        <ele>190.184368</ele>
        <time>2025-11-04T16:10:28.730Z</time>
      </trkpt>
      <trkpt lat="48.045117" lon="7.688187">
        <ele>190.199069</ele>
        <time>2025-11-04T16:10:31.838Z</time>
      </trkpt>
      <trkpt lat="48.046343" lon="7.687382">
        <ele>190.340626</ele>
        <time>2025-11-04T16:11:00.191Z</time>
      </trkpt>
      <trkpt lat="48.046828" lon="7.687061">
        <ele>190.397083</ele>
        <time>2025-11-04T16:11:11.591Z</time>
      </trkpt>
      <trkpt lat="48.046838" lon="7.687131">
        <ele>190.402177</ele>
        <time>2025-11-04T16:11:12.663Z</time>
      </trkpt>
      <trkpt lat="48.048004" lon="7.686323">
        <ele>190.468447</ele>
        <time>2025-11-04T16:11:40.066Z</time>
      </trkpt>
      <trkpt lat="48.048516" lon="7.685997">
        <ele>190.495996</ele>
        <time>2025-11-04T16:11:51.679Z</time>
      </trkpt>
      <trkpt lat="48.048570" lon="7.685915">
        <ele>190.471888</ele>
        <time>2025-11-04T16:11:53.285Z</time>
      </trkpt>
      <trkpt lat="48.048609" lon="7.685214">
        <ele>190.316058</ele>
        <time>2025-11-04T16:12:03.079Z</time>
      </trkpt>
      <trkpt lat="48.048673" lon="7.684956">
        <ele>190.255095</ele>
        <time>2025-11-04T16:12:06.882Z</time>
      </trkpt>
      <trkpt lat="48.048732" lon="7.684814">
        <ele>190.218056</ele>
        <time>2025-11-04T16:12:09.183Z</time>
      </trkpt>
      <trkpt lat="48.048956" lon="7.684486">
        <ele>190.114182</ele>
        <time>2025-11-04T16:12:15.620Z</time>
      </trkpt>
      <trkpt lat="48.049042" lon="7.684389">
        <ele>190.078489</ele>
        <time>2025-11-04T16:12:17.801Z</time>
      </trkpt>
      <trkpt lat="48.049356" lon="7.684073">
        <ele>189.953078</ele>
        <time>2025-11-04T16:12:25.404Z</time>
      </trkpt>
      <trkpt lat="48.049595" lon="7.683915">
        <ele>189.846304</ele>
        <time>2025-11-04T16:12:30.663Z</time>
      </trkpt>
      <trkpt lat="48.049960" lon="7.683700">
        <ele>189.638321</ele>
        <time>2025-11-04T16:12:38.499Z</time>
      </trkpt>
      <trkpt lat="48.050003" lon="7.683872">
        <ele>189.573237</ele>
        <time>2025-11-04T16:12:40.930Z</time>
      </trkpt>
      <trkpt lat="48.050468" lon="7.684651">
        <ele>189.203088</ele>
        <time>2025-11-04T16:12:54.810Z</time>
      </trkpt>
      <trkpt lat="48.052008" lon="7.687309">
        <ele>188.453745</ele>
        <time>2025-11-04T16:13:42.899Z</time>
      </trkpt>
      <trkpt lat="48.052914" lon="7.688989">
        <ele>188.704649</ele>
        <time>2025-11-04T16:14:14.130Z</time>
      </trkpt>
      <trkpt lat="48.053414" lon="7.689904">
        <ele>188.793249</ele>
        <time>2025-11-04T16:14:31.198Z</time>
      </trkpt>
      <trkpt lat="48.054016" lon="7.691025">
        <ele>188.867185</ele>
        <time>2025-11-04T16:14:51.273Z</time>
      </trkpt>
      <trkpt lat="48.054463" lon="7.691689">
        <ele>188.974806</ele>
        <time>2025-11-04T16:15:04.714Z</time>
      </trkpt>
      <trkpt lat="48.054552" lon="7.691789">
        <ele>189.005661</ele>
        <time>2025-11-04T16:15:07.120Z</time>
      </trkpt>
      <trkpt lat="48.054848" lon="7.692015">
        <ele>189.097784</ele>
        <time>2025-11-04T16:15:14.255Z</time>
      </trkpt>
      <trkpt lat="48.055113" lon="7.692326">
        <ele>189.191151</ele>
        <time>2025-11-04T16:15:21.514Z</time>
      </trkpt>
      <trkpt lat="48.055190" lon="7.692414">
        <ele>189.218011</ele>
        <time>2025-11-04T16:15:23.618Z</time>
      </trkpt>
      <trkpt lat="48.055640" lon="7.693292">
        <ele>189.393129</ele>
        <time>2025-11-04T16:15:39.849Z</time>
      </trkpt>
      <trkpt lat="48.056443" lon="7.694699">
        <ele>189.410643</ele>
        <time>2025-11-04T16:16:06.051Z</time>
      </trkpt>
      <trkpt lat="48.057070" lon="7.696137">
        <ele>189.090003</ele>
        <time>2025-11-04T16:16:29.419Z</time>
      </trkpt>
      <trkpt lat="48.057978" lon="7.698697">
        <ele>188.165415</ele>
        <time>2025-11-04T16:17:08.379Z</time>
      </trkpt>
      <trkpt lat="48.058463" lon="7.699969">
        <ele>187.687146</ele>
        <time>2025-11-04T16:17:28.242Z</time>
      </trkpt>
      <trkpt lat="48.058828" lon="7.700743">
        <ele>187.423688</ele>
        <time>2025-11-04T16:17:41.142Z</time>
      </trkpt>
      <trkpt lat="48.059503" lon="7.701874">
        <ele>187.001976</ele>
        <time>2025-11-04T16:18:01.689Z</time>
      </trkpt>
      <trkpt lat="48.059513" lon="7.702018">
        <ele>186.961711</ele>
        <time>2025-11-04T16:18:03.649Z</time>
      </trkpt>
      <trkpt lat="48.059309" lon="7.702389">
        <ele>186.921669</ele>
        <time>2025-11-04T16:18:10.197Z</time>
      </trkpt>
      <trkpt lat="48.059206" lon="7.702631">
        <ele>186.905164</ele>
        <time>2025-11-04T16:18:14.122Z</time>
      </trkpt>
      <trkpt lat="48.059257" lon="7.702779">
        <ele>186.895584</ele>
        <time>2025-11-04T16:18:16.413Z</time>
      </trkpt>
      <trkpt lat="48.059392" lon="7.703011">
        <ele>186.877888</ele>
        <time>2025-11-04T16:18:20.655Z</time>
      </trkpt>
      <trkpt lat="48.061690" lon="7.706573">
        <ele>187.113758</ele>
        <time>2025-11-04T16:19:31.091Z</time>
      </trkpt>
      <trkpt lat="48.062682" lon="7.708162">
        <ele>187.572610</ele>
        <time>2025-11-04T16:20:02.529Z</time>
      </trkpt>
      <trkpt lat="48.062824" lon="7.708619">
        <ele>187.737172</ele>
        <time>2025-11-04T16:20:10.026Z</time>
      </trkpt>
      <trkpt lat="48.062917" lon="7.708921">
        <ele>187.845747</ele>
        <time>2025-11-04T16:20:14.978Z</time>
      </trkpt>
      <trkpt lat="48.063133" lon="7.710024">
        <ele>188.221044</ele>
        <time>2025-11-04T16:20:31.994Z</time>
      </trkpt>
      <trkpt lat="48.063043" lon="7.710047">
        <ele>188.265653</ele>
        <time>2025-11-04T16:20:33.969Z</time>
      </trkpt>
      <trkpt lat="48.063005" lon="7.710059">
        <ele>188.284628</ele>
        <time>2025-11-04T16:20:34.817Z</time>
      </trkpt>
      <trkpt lat="48.062975" lon="7.710064">
        <ele>188.299376</ele>
        <time>2025-11-04T16:20:35.471Z</time>
      </trkpt>
      <trkpt lat="48.063083" lon="7.710433">
        <ele>188.375812</ele>
        <time>2025-11-04T16:20:41.206Z</time>
      </trkpt>
      <trkpt lat="48.063204" lon="7.710724">
        <ele>188.379245</ele>
        <time>2025-11-04T16:20:45.983Z</time>
      </trkpt>
      <trkpt lat="48.063554" lon="7.711445">
        <ele>188.388171</ele>
        <time>2025-11-04T16:20:58.235Z</time>
      </trkpt>
      <trkpt lat="48.063808" lon="7.711906">
        <ele>188.394155</ele>
        <time>2025-11-04T16:21:06.429Z</time>
      </trkpt>
      <trkpt lat="48.064926" lon="7.714230">
        <ele>188.995093</ele>
        <time>2025-11-04T16:21:48.007Z</time>
      </trkpt>
      <trkpt lat="48.065113" lon="7.714606">
        <ele>189.122958</ele>
        <time>2025-11-04T16:21:54.865Z</time>
      </trkpt>
      <trkpt lat="48.065178" lon="7.714673">
        <ele>189.182698</ele>
        <time>2025-11-04T16:21:56.585Z</time>
      </trkpt>
      <trkpt lat="48.065250" lon="7.714697">
        <ele>189.254442</ele>
        <time>2025-11-04T16:21:58.214Z</time>
      </trkpt>
      <trkpt lat="48.065258" lon="7.714834">
        <ele>189.343829</ele>
        <time>2025-11-04T16:22:00.243Z</time>
      </trkpt>
      <trkpt lat="48.065287" lon="7.714885">
        <ele>189.387354</ele>
        <time>2025-11-04T16:22:01.215Z</time>
      </trkpt>
      <trkpt lat="48.065516" lon="7.715315">
        <ele>189.744738</ele>
        <time>2025-11-04T16:22:09.395Z</time>
      </trkpt>
      <trkpt lat="48.065612" lon="7.715517">
        <ele>189.905849</ele>
        <time>2025-11-04T16:22:13.141Z</time>
      </trkpt>
      <trkpt lat="48.065772" lon="7.715855">
        <ele>190.175073</ele>
        <time>2025-11-04T16:22:19.395Z</time>
      </trkpt>
      <trkpt lat="48.066033" lon="7.716397">
        <ele>190.609292</ele>
        <time>2025-11-04T16:22:29.563Z</time>
      </trkpt>
      <trkpt lat="48.066150" lon="7.716654">
        <ele>190.811412</ele>
        <time>2025-11-04T16:22:34.299Z</time>
      </trkpt>
      <trkpt lat="48.066498" lon="7.717365">
        <ele>191.242098</ele>
        <time>2025-11-04T16:22:47.625Z</time>
      </trkpt>
      <trkpt lat="48.066691" lon="7.717732">
        <ele>191.459277</ele>
        <time>2025-11-04T16:22:54.671Z</time>
      </trkpt>
      <trkpt lat="48.066786" lon="7.717781">
        <ele>191.529204</ele>
        <time>2025-11-04T16:22:56.928Z</time>
      </trkpt>
      <trkpt lat="48.066840" lon="7.717731">
        <ele>191.573394</ele>
        <time>2025-11-04T16:22:58.360Z</time>
      </trkpt>
      <trkpt lat="48.067152" lon="7.717251">
        <ele>191.884790</ele>
        <time>2025-11-04T16:23:08.154Z</time>
      </trkpt>
      <trkpt lat="48.067185" lon="7.717285">
        <ele>191.912671</ele>
        <time>2025-11-04T16:23:09.004Z</time>
      </trkpt>
      <trkpt lat="48.067757" lon="7.717878">
        <ele>192.126899</ele>
        <time>2025-11-04T16:23:23.362Z</time>
      </trkpt>
      <trkpt lat="48.068305" lon="7.718426">
        <ele>192.110314</ele>
        <time>2025-11-04T16:23:37.725Z</time>
      </trkpt>
      <trkpt lat="48.069014" lon="7.719132">
        <ele>192.051402</ele>
        <time>2025-11-04T16:23:55.158Z</time>
      </trkpt>
      <trkpt lat="48.069169" lon="7.719418">
        <ele>191.938632</ele>
        <time>2025-11-04T16:24:00.329Z</time>
      </trkpt>
      <trkpt lat="48.069421" lon="7.720076">
        <ele>191.706378</ele>
        <time>2025-11-04T16:24:10.890Z</time>
      </trkpt>
      <trkpt lat="48.069613" lon="7.720736">
        <ele>191.485938</ele>
        <time>2025-11-04T16:24:20.323Z</time>
      </trkpt>
      <trkpt lat="48.069615" lon="7.720840">
        <ele>191.454076</ele>
        <time>2025-11-04T16:24:21.751Z</time>
      </trkpt>
      <trkpt lat="48.069682" lon="7.720992">
        <ele>191.398312</ele>
        <time>2025-11-04T16:24:24.206Z</time>
      </trkpt>
      <trkpt lat="48.069759" lon="7.721074">
        <ele>191.355002</ele>
        <time>2025-11-04T16:24:26.059Z</time>
      </trkpt>
      <trkpt lat="48.069863" lon="7.721078">
        <ele>191.307324</ele>
        <time>2025-11-04T16:24:28.140Z</time>
      </trkpt>
      <trkpt lat="48.069851" lon="7.721327">
        <ele>191.214475</ele>
        <time>2025-11-04T16:24:31.518Z</time>
      </trkpt>
      <trkpt lat="48.069842" lon="7.721547">
        <ele>191.116145</ele>
        <time>2025-11-04T16:24:34.565Z</time>
      </trkpt>
      <trkpt lat="48.069653" lon="7.722800">
        <ele>190.543090</ele>
        <time>2025-11-04T16:24:51.899Z</time>
      </trkpt>
      <trkpt lat="48.069609" lon="7.723334">
        <ele>190.303057</ele>
        <time>2025-11-04T16:24:59.102Z</time>
      </trkpt>
      <trkpt lat="48.069589" lon="7.724054">
        <ele>189.926808</ele>
        <time>2025-11-04T16:25:08.513Z</time>
      </trkpt>
      <trkpt lat="48.069587" lon="7.724212">
        <ele>189.810558</ele>
        <time>2025-11-04T16:25:10.530Z</time>
      </trkpt>
      <trkpt lat="48.069587" lon="7.724384">
        <ele>189.684030</ele>
        <time>2025-11-04T16:25:12.702Z</time>
      </trkpt>
      <trkpt lat="48.069671" lon="7.724895">
        <ele>189.296918</ele>
        <time>2025-11-04T16:25:19.157Z</time>
      </trkpt>
      <trkpt lat="48.069691" lon="7.725255">
        <ele>189.031178</ele>
        <time>2025-11-04T16:25:23.689Z</time>
      </trkpt>
      <trkpt lat="48.069679" lon="7.725595">
        <ele>188.780717</ele>
        <time>2025-11-04T16:25:28.000Z</time>
      </trkpt>
      <trkpt lat="48.069629" lon="7.725940">
        <ele>188.521025</ele>
        <time>2025-11-04T16:25:32.512Z</time>
      </trkpt>
      <trkpt lat="48.069599" lon="7.726028">
        <ele>188.448352</ele>
        <time>2025-11-04T16:25:33.775Z</time>
      </trkpt>
      <trkpt lat="48.069570" lon="7.726088">
        <ele>188.393879</ele>
        <time>2025-11-04T16:25:34.713Z</time>
      </trkpt>
      <trkpt lat="48.069557" lon="7.726181">
        <ele>188.323985</ele>
        <time>2025-11-04T16:25:35.935Z</time>
      </trkpt>
      <trkpt lat="48.069364" lon="7.726783">
        <ele>188.028456</ele>
        <time>2025-11-04T16:25:44.628Z</time>
      </trkpt>
      <trkpt lat="48.069316" lon="7.727491">
        <ele>187.909646</ele>
        <time>2025-11-04T16:25:54.304Z</time>
      </trkpt>
      <trkpt lat="48.069226" lon="7.727867">
        <ele>187.842965</ele>
        <time>2025-11-04T16:25:59.970Z</time>
      </trkpt>
      <trkpt lat="48.068912" lon="7.728615">
        <ele>187.695485</ele>
        <time>2025-11-04T16:26:12.541Z</time>
      </trkpt>
      <trkpt lat="48.068776" lon="7.729055">
        <ele>187.625093</ele>
        <time>2025-11-04T16:26:19.349Z</time>
      </trkpt>
      <trkpt lat="48.068756" lon="7.729279">
        <ele>187.605477</ele>
        <time>2025-11-04T16:26:22.512Z</time>
      </trkpt>
      <trkpt lat="48.068770" lon="7.729533">
        <ele>187.583356</ele>
        <time>2025-11-04T16:26:26.069Z</time>
      </trkpt>
      <trkpt lat="48.068856" lon="7.729801">
        <ele>187.557551</ele>
        <time>2025-11-04T16:26:30.194Z</time>
      </trkpt>
      <trkpt lat="48.068926" lon="7.729936">
        <ele>187.542719</ele>
        <time>2025-11-04T16:26:32.566Z</time>
      </trkpt>
      <trkpt lat="48.069177" lon="7.730430">
        <ele>187.488854</ele>
        <time>2025-11-04T16:26:41.163Z</time>
      </trkpt>
      <trkpt lat="48.069529" lon="7.731501">
        <ele>187.384767</ele>
        <time>2025-11-04T16:26:57.727Z</time>
      </trkpt>
      <trkpt lat="48.069654" lon="7.732009">
        <ele>187.336469</ele>
        <time>2025-11-04T16:27:05.192Z</time>
      </trkpt>
      <trkpt lat="48.069669" lon="7.732225">
        <ele>187.317093</ele>
        <time>2025-11-04T16:27:08.200Z</time>
      </trkpt>
      <trkpt lat="48.069645" lon="7.732933">
        <ele>187.253845</ele>
        <time>2025-11-04T16:27:18.072Z</time>
      </trkpt>
      <trkpt lat="48.069667" lon="7.733296">
        <ele>187.221325</ele>
        <time>2025-11-04T16:27:23.157Z</time>
      </trkpt>
      <trkpt lat="48.069744" lon="7.733498">
        <ele>187.200577</ele>
        <time>2025-11-04T16:27:26.409Z</time>
      </trkpt>
      <trkpt lat="48.069873" lon="7.733806">
        <ele>187.168146</ele>
        <time>2025-11-04T16:27:31.502Z</time>
      </trkpt>
      <trkpt lat="48.069891" lon="7.734026">
        <ele>187.177022</ele>
        <time>2025-11-04T16:27:34.610Z</time>
      </trkpt>
      <trkpt lat="48.069625" lon="7.735341">
        <ele>187.298906</ele>
        <time>2025-11-04T16:27:54.085Z</time>
      </trkpt>
      <trkpt lat="48.069361" lon="7.736517">
        <ele>187.412313</ele>
        <time>2025-11-04T16:28:11.915Z</time>
      </trkpt>
      <trkpt lat="48.069294" lon="7.736846">
        <ele>187.456564</ele>
        <time>2025-11-04T16:28:16.894Z</time>
      </trkpt>
      <trkpt lat="48.068977" lon="7.738212">
        <ele>187.642610</ele>
        <time>2025-11-04T16:28:37.753Z</time>
      </trkpt>
      <trkpt lat="48.068857" lon="7.738479">
        <ele>187.684009</ele>
        <time>2025-11-04T16:28:42.343Z</time>
      </trkpt>
      <trkpt lat="48.068827" lon="7.738526">
        <ele>187.692372</ele>
        <time>2025-11-04T16:28:43.268Z</time>
      </trkpt>
      <trkpt lat="48.068695" lon="7.738808">
        <ele>187.736670</ele>
        <time>2025-11-04T16:28:48.130Z</time>
      </trkpt>
      <trkpt lat="48.068664" lon="7.739017">
        <ele>187.741881</ele>
        <time>2025-11-04T16:28:51.151Z</time>
      </trkpt>
      <trkpt lat="48.068689" lon="7.739226">
        <ele>187.731967</ele>
        <time>2025-11-04T16:28:54.135Z</time>
      </trkpt>
      <trkpt lat="48.069451" lon="7.740792">
        <ele>187.641515</ele>
        <time>2025-11-04T16:29:21.143Z</time>
      </trkpt>
      <trkpt lat="48.069770" lon="7.741349">
        <ele>187.632150</ele>
        <time>2025-11-04T16:29:31.423Z</time>
      </trkpt>
      <trkpt lat="48.069913" lon="7.741761">
        <ele>187.646715</ele>
        <time>2025-11-04T16:29:37.964Z</time>
      </trkpt>
      <trkpt lat="48.070372" lon="7.742575">
        <ele>187.680128</ele>
        <time>2025-11-04T16:29:53.111Z</time>
      </trkpt>
      <trkpt lat="48.070515" lon="7.742645">
        <ele>187.687192</ele>
        <time>2025-11-04T16:29:56.310Z</time>
      </trkpt>
      <trkpt lat="48.070649" lon="7.742600">
        <ele>187.693639</ele>
        <time>2025-11-04T16:29:59.222Z</time>
      </trkpt>
      <trkpt lat="48.070763" lon="7.742611">
        <ele>187.699002</ele>
        <time>2025-11-04T16:30:01.633Z</time>
      </trkpt>
      <trkpt lat="48.071191" lon="7.742840">
        <ele>187.718812</ele>
        <time>2025-11-04T16:30:11.286Z</time>
      </trkpt>
      <trkpt lat="48.071241" lon="7.742869">
        <ele>187.721050</ele>
        <time>2025-11-04T16:30:12.417Z</time>
      </trkpt>
      <trkpt lat="48.071495" lon="7.742972">
        <ele>187.732031</ele>
        <time>2025-11-04T16:30:17.989Z</time>
      </trkpt>
      <trkpt lat="48.071591" lon="7.742939">
        <ele>187.736141</ele>
        <time>2025-11-04T16:30:20.053Z</time>
      </trkpt>
      <trkpt lat="48.071729" lon="7.743019">
        <ele>187.742316</ele>
        <time>2025-11-04T16:30:23.178Z</time>
      </trkpt>
      <trkpt lat="48.071779" lon="7.743054">
        <ele>187.744619</ele>
        <time>2025-11-04T16:30:24.351Z</time>
      </trkpt>
      <trkpt lat="48.071848" lon="7.743177">
        <ele>187.749097</ele>
        <time>2025-11-04T16:30:26.609Z</time>
      </trkpt>
      <trkpt lat="48.071845" lon="7.743189">
        <ele>187.749454</ele>
        <time>2025-11-04T16:30:26.793Z</time>
      </trkpt>
      <trkpt lat="48.071834" lon="7.743248">
        <ele>187.751162</ele>
        <time>2025-11-04T16:30:27.655Z</time>
      </trkpt>
      <trkpt lat="48.071674" lon="7.743379">
        <ele>187.758772</ele>
        <time>2025-11-04T16:30:31.490Z</time>
      </trkpt>
      <trkpt lat="48.071611" lon="7.743501">
        <ele>187.763071</ele>
        <time>2025-11-04T16:30:33.658Z</time>
      </trkpt>
      <trkpt lat="48.071478" lon="7.743819">
        <ele>187.773532</ele>
        <time>2025-11-04T16:30:38.899Z</time>
      </trkpt>
      <trkpt lat="48.071424" lon="7.744160">
        <ele>187.791868</ele>
        <time>2025-11-04T16:30:43.859Z</time>
      </trkpt>
      <trkpt lat="48.071416" lon="7.744321">
        <ele>187.819590</ele>
        <time>2025-11-04T16:30:46.168Z</time>
      </trkpt>
      <trkpt lat="48.071375" lon="7.744441">
        <ele>187.842732</ele>
        <time>2025-11-04T16:30:48.087Z</time>
      </trkpt>
      <trkpt lat="48.071346" lon="7.744468">
        <ele>187.851509</ele>
        <time>2025-11-04T16:30:48.816Z</time>
      </trkpt>
      <trkpt lat="48.071273" lon="7.744533">
        <ele>187.873337</ele>
        <time>2025-11-04T16:30:50.623Z</time>
      </trkpt>
      <trkpt lat="48.071066" lon="7.744628">
        <ele>187.928976</ele>
        <time>2025-11-04T16:30:55.294Z</time>
      </trkpt>
      <trkpt lat="48.070924" lon="7.744821">
        <ele>187.978269</ele>
        <time>2025-11-04T16:30:59.405Z</time>
      </trkpt>
      <trkpt lat="48.070001" lon="7.746465">
        <ele>188.366382</ele>
        <time>2025-11-04T16:31:30.530Z</time>
      </trkpt>
      <trkpt lat="48.069872" lon="7.746698">
        <ele>188.428114</ele>
        <time>2025-11-04T16:31:34.896Z</time>
      </trkpt>
      <trkpt lat="48.069521" lon="7.747480">
        <ele>188.620306</ele>
        <time>2025-11-04T16:31:48.457Z</time>
      </trkpt>
      <trkpt lat="48.069193" lon="7.748502">
        <ele>188.937518</ele>
        <time>2025-11-04T16:32:04.799Z</time>
      </trkpt>
      <trkpt lat="48.068933" lon="7.749709">
        <ele>189.575382</ele>
        <time>2025-11-04T16:32:23.442Z</time>
      </trkpt>
      <trkpt lat="48.068801" lon="7.750729">
        <ele>190.097960</ele>
        <time>2025-11-04T16:32:39.159Z</time>
      </trkpt>
      <trkpt lat="48.068747" lon="7.751402">
        <ele>190.354699</ele>
        <time>2025-11-04T16:32:49.466Z</time>
      </trkpt>
      <trkpt lat="48.068726" lon="7.752283">
        <ele>190.670275</ele>
        <time>2025-11-04T16:33:02.610Z</time>
      </trkpt>
      <trkpt lat="48.068770" lon="7.752921">
        <ele>190.899875</ele>
        <time>2025-11-04T16:33:11.937Z</time>
      </trkpt>
      <trkpt lat="48.068824" lon="7.753503">
        <ele>191.110214</ele>
        <time>2025-11-04T16:33:20.128Z</time>
      </trkpt>
      <trkpt lat="48.068922" lon="7.754174">
        <ele>191.018359</ele>
        <time>2025-11-04T16:33:29.406Z</time>
      </trkpt>
      <trkpt lat="48.069193" lon="7.755298">
        <ele>190.858184</ele>
        <time>2025-11-04T16:33:45.674Z</time>
      </trkpt>
      <trkpt lat="48.069569" lon="7.756438">
        <ele>190.770620</ele>
        <time>2025-11-04T16:34:03.650Z</time>
      </trkpt>
      <trkpt lat="48.069468" lon="7.756532">
        <ele>190.778749</ele>
        <time>2025-11-04T16:34:06.200Z</time>
      </trkpt>
      <trkpt lat="48.069420" lon="7.756569">
        <ele>190.782439</ele>
        <time>2025-11-04T16:34:07.374Z</time>
      </trkpt>
      <trkpt lat="48.069463" lon="7.756705">
        <ele>190.789310</ele>
        <time>2025-11-04T16:34:09.539Z</time>
      </trkpt>
      <trkpt lat="48.069646" lon="7.757277">
        <ele>190.818273</ele>
        <time>2025-11-04T16:34:18.684Z</time>
      </trkpt>
      <trkpt lat="48.069696" lon="7.757441">
        <ele>190.826505</ele>
        <time>2025-11-04T16:34:21.276Z</time>
      </trkpt>
      <trkpt lat="48.069621" lon="7.757535">
        <ele>190.833191</ele>
        <time>2025-11-04T16:34:23.356Z</time>
      </trkpt>
      <trkpt lat="48.069621" lon="7.757600">
        <ele>190.836160</ele>
        <time>2025-11-04T16:34:24.285Z</time>
      </trkpt>
      <trkpt lat="48.069809" lon="7.757999">
        <ele>190.858456</ele>
        <time>2025-11-04T16:34:31.182Z</time>
      </trkpt>
      <trkpt lat="48.070027" lon="7.758823">
        <ele>190.843675</ele>
        <time>2025-11-04T16:34:43.381Z</time>
      </trkpt>
      <trkpt lat="48.070128" lon="7.759165">
        <ele>190.825061</ele>
        <time>2025-11-04T16:34:48.480Z</time>
      </trkpt>
      <trkpt lat="48.070225" lon="7.759620">
        <ele>190.801285</ele>
        <time>2025-11-04T16:34:55.067Z</time>
      </trkpt>
      <trkpt lat="48.070274" lon="7.759980">
        <ele>190.782995</ele>
        <time>2025-11-04T16:35:00.269Z</time>
      </trkpt>
      <trkpt lat="48.070339" lon="7.760539">
        <ele>190.754748</ele>
        <time>2025-11-04T16:35:08.311Z</time>
      </trkpt>
      <trkpt lat="48.070364" lon="7.760795">
        <ele>190.741868</ele>
        <time>2025-11-04T16:35:11.964Z</time>
      </trkpt>
      <trkpt lat="48.070428" lon="7.761544">
        <ele>190.754215</ele>
        <time>2025-11-04T16:35:22.710Z</time>
      </trkpt>
      <trkpt lat="48.070558" lon="7.763356">
        <ele>190.795905</ele>
        <time>2025-11-04T16:35:48.483Z</time>
      </trkpt>
      <trkpt lat="48.070562" lon="7.763851">
        <ele>190.839908</ele>
        <time>2025-11-04T16:35:55.364Z</time>
      </trkpt>
      <trkpt lat="48.070549" lon="7.764233">
        <ele>190.888588</ele>
        <time>2025-11-04T16:36:00.732Z</time>
      </trkpt>
      <trkpt lat="48.070518" lon="7.764423">
        <ele>190.913479</ele>
        <time>2025-11-04T16:36:03.515Z</time>
      </trkpt>
      <trkpt lat="48.070545" lon="7.764496">
        <ele>190.924098</ele>
        <time>2025-11-04T16:36:04.721Z</time>
      </trkpt>
      <trkpt lat="48.070461" lon="7.764806">
        <ele>190.966672</ele>
        <time>2025-11-04T16:36:09.520Z</time>
      </trkpt>
      <trkpt lat="48.070373" lon="7.765149">
        <ele>191.013432</ele>
        <time>2025-11-04T16:36:14.796Z</time>
      </trkpt>
      <trkpt lat="48.070308" lon="7.765697">
        <ele>191.084266</ele>
        <time>2025-11-04T16:36:22.946Z</time>
      </trkpt>
      <trkpt lat="48.070292" lon="7.765827">
        <ele>191.101089</ele>
        <time>2025-11-04T16:36:24.886Z</time>
      </trkpt>
      <trkpt lat="48.070257" lon="7.766030">
        <ele>191.127771</ele>
        <time>2025-11-04T16:36:27.938Z</time>
      </trkpt>
      <trkpt lat="48.070212" lon="7.766200">
        <ele>191.149510</ele>
        <time>2025-11-04T16:36:30.569Z</time>
      </trkpt>
      <trkpt lat="48.070184" lon="7.766271">
        <ele>191.158088</ele>
        <time>2025-11-04T16:36:32.099Z</time>
      </trkpt>
      <trkpt lat="48.070133" lon="7.766366">
        <ele>191.170769</ele>
        <time>2025-11-04T16:36:34.351Z</time>
      </trkpt>
      <trkpt lat="48.070012" lon="7.766549">
        <ele>191.197557</ele>
        <time>2025-11-04T16:36:39.120Z</time>
      </trkpt>
      <trkpt lat="48.070466" lon="7.767215">
        <ele>191.296554</ele>
        <time>2025-11-04T16:36:52.681Z</time>
      </trkpt>
      <trkpt lat="48.070581" lon="7.767519">
        <ele>191.332904</ele>
        <time>2025-11-04T16:36:57.571Z</time>
      </trkpt>
      <trkpt lat="48.070600" lon="7.767702">
        <ele>191.352174</ele>
        <time>2025-11-04T16:37:00.166Z</time>
      </trkpt>
      <trkpt lat="48.070605" lon="7.767932">
        <ele>191.376119</ele>
        <time>2025-11-04T16:37:03.410Z</time>
      </trkpt>
      <trkpt lat="48.070564" lon="7.768334">
        <ele>191.418433</ele>
        <time>2025-11-04T16:37:09.174Z</time>
      </trkpt>
      <trkpt lat="48.070507" lon="7.768518">
        <ele>191.478886</ele>
        <time>2025-11-04T16:37:12.068Z</time>
      </trkpt>
      <trkpt lat="48.070539" lon="7.768598">
        <ele>191.511292</ele>
        <time>2025-11-04T16:37:13.417Z</time>
      </trkpt>
      <trkpt lat="48.070509" lon="7.768679">
        <ele>191.543480</ele>
        <time>2025-11-04T16:37:14.756Z</time>
      </trkpt>
      <trkpt lat="48.070550" lon="7.768786">
        <ele>191.586350</ele>
        <time>2025-11-04T16:37:16.541Z</time>
      </trkpt>
      <trkpt lat="48.070633" lon="7.768906">
        <ele>191.646377</ele>
        <time>2025-11-04T16:37:19.061Z</time>
      </trkpt>
      <trkpt lat="48.070737" lon="7.769045">
        <ele>191.718904</ele>
        <time>2025-11-04T16:37:22.134Z</time>
      </trkpt>
      <trkpt lat="48.070811" lon="7.769198">
        <ele>191.784549</ele>
        <time>2025-11-04T16:37:24.937Z</time>
      </trkpt>
      <trkpt lat="48.070822" lon="7.769388">
        <ele>191.850833</ele>
        <time>2025-11-04T16:37:27.783Z</time>
      </trkpt>
      <trkpt lat="48.070798" lon="7.769679">
        <ele>191.952741</ele>
        <time>2025-11-04T16:37:32.155Z</time>
      </trkpt>
      <trkpt lat="48.070766" lon="7.770218">
        <ele>192.140814</ele>
        <time>2025-11-04T16:37:40.134Z</time>
      </trkpt>
      <trkpt lat="48.070701" lon="7.771077">
        <ele>192.390451</ele>
        <time>2025-11-04T16:37:52.888Z</time>
      </trkpt>
      <trkpt lat="48.070986" lon="7.771263">
        <ele>192.453156</ele>
        <time>2025-11-04T16:37:59.677Z</time>
      </trkpt>
      <trkpt lat="48.071193" lon="7.771469">
        <ele>192.503290</ele>
        <time>2025-11-04T16:38:05.019Z</time>
      </trkpt>
      <trkpt lat="48.071347" lon="7.771622">
        <ele>192.540568</ele>
        <time>2025-11-04T16:38:08.900Z</time>
      </trkpt>
      <trkpt lat="48.071127" lon="7.773154">
        <ele>192.846567</ele>
        <time>2025-11-04T16:38:30.696Z</time>
      </trkpt>
      <trkpt lat="48.071117" lon="7.773250">
        <ele>192.900063</ele>
        <time>2025-11-04T16:38:32.090Z</time>
      </trkpt>
      <trkpt lat="48.071055" lon="7.773737">
        <ele>193.173031</ele>
        <time>2025-11-04T16:38:39.370Z</time>
      </trkpt>
      <trkpt lat="48.070957" lon="7.774317">
        <ele>193.502433</ele>
        <time>2025-11-04T16:38:48.406Z</time>
      </trkpt>
      <trkpt lat="48.070858" lon="7.774898">
        <ele>193.832573</ele>
        <time>2025-11-04T16:38:57.547Z</time>
      </trkpt>
      <trkpt lat="48.070762" lon="7.775444">
        <ele>194.143437</ele>
        <time>2025-11-04T16:39:06.137Z</time>
      </trkpt>
      <trkpt lat="48.070657" lon="7.776100">
        <ele>194.376593</ele>
        <time>2025-11-04T16:39:16.316Z</time>
      </trkpt>
      <trkpt lat="48.070659" lon="7.776528">
        <ele>194.507747</ele>
        <time>2025-11-04T16:39:22.678Z</time>
      </trkpt>
      <trkpt lat="48.070613" lon="7.778805">
        <ele>195.348439</ele>
        <time>2025-11-04T16:39:55.035Z</time>
      </trkpt>
      <trkpt lat="48.070552" lon="7.780486">
        <ele>196.277925</ele>
        <time>2025-11-04T16:40:20.043Z</time>
      </trkpt>
      <trkpt lat="48.070551" lon="7.780543">
        <ele>196.309407</ele>
        <time>2025-11-04T16:40:20.917Z</time>
      </trkpt>
      <trkpt lat="48.070526" lon="7.781369">
        <ele>197.154348</ele>
        <time>2025-11-04T16:40:33.755Z</time>
      </trkpt>
      <trkpt lat="48.070549" lon="7.781853">
        <ele>197.835395</ele>
        <time>2025-11-04T16:40:41.336Z</time>
      </trkpt>
      <trkpt lat="48.070634" lon="7.782304">
        <ele>198.493105</ele>
        <time>2025-11-04T16:40:48.693Z</time>
      </trkpt>
      <trkpt lat="48.070806" lon="7.782963">
        <ele>199.486114</ele>
        <time>2025-11-04T16:40:59.868Z</time>
      </trkpt>
      <trkpt lat="48.070903" lon="7.782948">
        <ele>199.690946</ele>
        <time>2025-11-04T16:41:02.172Z</time>
      </trkpt>
      <trkpt lat="48.071677" lon="7.783708">
        <ele>201.826624</ele>
        <time>2025-11-04T16:41:24.109Z</time>
      </trkpt>
      <trkpt lat="48.071871" lon="7.783973">
        <ele>202.456866</ele>
        <time>2025-11-04T16:41:30.338Z</time>
      </trkpt>
      <trkpt lat="48.072015" lon="7.784222">
        <ele>202.984846</ele>
        <time>2025-11-04T16:41:35.610Z</time>
      </trkpt>
      <trkpt lat="48.072354" lon="7.784846">
        <ele>204.274247</ele>
        <time>2025-11-04T16:41:48.517Z</time>
      </trkpt>
      <trkpt lat="48.072826" lon="7.785803">
        <ele>204.443186</ele>
        <time>2025-11-04T16:42:07.104Z</time>
      </trkpt>
      <trkpt lat="48.073445" lon="7.786999">
        <ele>204.189379</ele>
        <time>2025-11-04T16:42:26.759Z</time>
      </trkpt>
      <trkpt lat="48.073571" lon="7.787145">
        <ele>204.056145</ele>
        <time>2025-11-04T16:42:29.344Z</time>
      </trkpt>
      <trkpt lat="48.074291" lon="7.787883">
        <ele>200.857699</ele>
        <time>2025-11-04T16:42:42.927Z</time>
      </trkpt>
      <trkpt lat="48.074685" lon="7.788316">
        <ele>199.066140</ele>
        <time>2025-11-04T16:42:50.406Z</time>
      </trkpt>
      <trkpt lat="48.075686" lon="7.789136">
        <ele>196.307308</ele>
        <time>2025-11-04T16:43:09.153Z</time>
      </trkpt>
      <trkpt lat="48.075781" lon="7.789263">
        <ele>196.088411</ele>
        <time>2025-11-04T16:43:11.496Z</time>
      </trkpt>
      <trkpt lat="48.075878" lon="7.789486">
        <ele>195.782886</ele>
        <time>2025-11-04T16:43:14.826Z</time>
      </trkpt>
      <trkpt lat="48.075908" lon="7.789429">
        <ele>195.699573</ele>
        <time>2025-11-04T16:43:15.759Z</time>
      </trkpt>
      <trkpt lat="48.075878" lon="7.789486">
        <ele>195.616259</ele>
        <time>2025-11-04T16:43:16.672Z</time>
      </trkpt>
      <trkpt lat="48.075548" lon="7.790063">
        <ele>194.744186</ele>
        <time>2025-11-04T16:43:26.737Z</time>
      </trkpt>
      <trkpt lat="48.075384" lon="7.790290">
        <ele>194.478063</ele>
        <time>2025-11-04T16:43:31.336Z</time>
      </trkpt>
      <trkpt lat="48.074771" lon="7.791008">
        <ele>194.537185</ele>
        <time>2025-11-04T16:43:48.157Z</time>
      </trkpt>
      <trkpt lat="48.074597" lon="7.791319">
        <ele>194.557770</ele>
        <time>2025-11-04T16:43:54.022Z</time>
      </trkpt>
      <trkpt lat="48.074309" lon="7.791905">
        <ele>194.594688</ele>
        <time>2025-11-04T16:44:04.418Z</time>
      </trkpt>
      <trkpt lat="48.074754" lon="7.792647">
        <ele>194.522149</ele>
        <time>2025-11-04T16:44:18.431Z</time>
      </trkpt>
      <trkpt lat="48.075309" lon="7.793670">
        <ele>194.357685</ele>
        <time>2025-11-04T16:44:36.414Z</time>
      </trkpt>
      <trkpt lat="48.075449" lon="7.793832">
        <ele>194.324630</ele>
        <time>2025-11-04T16:44:40.041Z</time>
      </trkpt>
      <trkpt lat="48.075570" lon="7.793914">
        <ele>194.299820</ele>
        <time>2025-11-04T16:44:42.820Z</time>
      </trkpt>
      <trkpt lat="48.075989" lon="7.794131">
        <ele>194.309982</ele>
        <time>2025-11-04T16:44:52.074Z</time>
      </trkpt>
      <trkpt lat="48.076096" lon="7.794238">
        <ele>194.325348</ele>
        <time>2025-11-04T16:44:54.775Z</time>
      </trkpt>
      <trkpt lat="48.076270" lon="7.794507">
        <ele>194.355219</ele>
        <time>2025-11-04T16:45:00.021Z</time>
      </trkpt>
      <trkpt lat="48.076301" lon="7.794629">
        <ele>194.365633</ele>
        <time>2025-11-04T16:45:01.876Z</time>
      </trkpt>
      <trkpt lat="48.076294" lon="7.794911">
        <ele>194.388147</ele>
        <time>2025-11-04T16:45:05.863Z</time>
      </trkpt>
      <trkpt lat="48.076321" lon="7.795076">
        <ele>194.401700</ele>
        <time>2025-11-04T16:45:08.280Z</time>
      </trkpt>
      <trkpt lat="48.076387" lon="7.795254">
        <ele>194.417941</ele>
        <time>2025-11-04T16:45:11.183Z</time>
      </trkpt>
      <trkpt lat="48.076742" lon="7.795669">
        <ele>194.471729</ele>
        <time>2025-11-04T16:45:20.940Z</time>
      </trkpt>
      <trkpt lat="48.077052" lon="7.796145">
        <ele>194.668495</ele>
        <time>2025-11-04T16:45:30.638Z</time>
      </trkpt>
      <trkpt lat="48.077687" lon="7.797377">
        <ele>195.284642</ele>
        <time>2025-11-04T16:45:53.576Z</time>
      </trkpt>
      <trkpt lat="48.077701" lon="7.797539">
        <ele>195.349326</ele>
        <time>2025-11-04T16:45:55.991Z</time>
      </trkpt>
      <trkpt lat="48.077564" lon="7.797789">
        <ele>195.477360</ele>
        <time>2025-11-04T16:46:03.401Z</time>
      </trkpt>
      <trkpt lat="48.077471" lon="7.797958">
        <ele>195.564942</ele>
        <time>2025-11-04T16:46:08.393Z</time>
      </trkpt>
      <trkpt lat="48.077105" lon="7.798045">
        <ele>195.804907</ele>
        <time>2025-11-04T16:46:21.081Z</time>
      </trkpt>
      <trkpt lat="48.076672" lon="7.798066">
        <ele>196.085434</ele>
        <time>2025-11-04T16:46:35.901Z</time>
      </trkpt>
      <trkpt lat="48.076463" lon="7.798091">
        <ele>196.221198</ele>
        <time>2025-11-04T16:46:43.062Z</time>
      </trkpt>
      <trkpt lat="48.075823" lon="7.798275">
        <ele>196.643192</ele>
        <time>2025-11-04T16:47:05.459Z</time>
      </trkpt>
      <trkpt lat="48.075428" lon="7.798449">
        <ele>196.840536</ele>
        <time>2025-11-04T16:47:19.621Z</time>
      </trkpt>
      <trkpt lat="48.073882" lon="7.798698">
        <ele>197.485923</ele>
        <time>2025-11-04T16:48:13.182Z</time>
      </trkpt>
      <trkpt lat="48.073490" lon="7.798841">
        <ele>197.687476</ele>
        <time>2025-11-04T16:48:27.046Z</time>
      </trkpt>
      <trkpt lat="48.073210" lon="7.798984">
        <ele>197.835267</ele>
        <time>2025-11-04T16:48:37.155Z</time>
      </trkpt>
      <trkpt lat="48.073147" lon="7.799123">
        <ele>197.891330</ele>
        <time>2025-11-04T16:48:41.033Z</time>
      </trkpt>
      <trkpt lat="48.073098" lon="7.799280">
        <ele>197.949169</ele>
        <time>2025-11-04T16:48:43.815Z</time>
      </trkpt>
      <trkpt lat="48.072965" lon="7.799315">
        <ele>198.016627</ele>
        <time>2025-11-04T16:48:46.790Z</time>
      </trkpt>
      <trkpt lat="48.072583" lon="7.799596">
        <ele>198.229256</ele>
        <time>2025-11-04T16:48:56.117Z</time>
      </trkpt>
      <trkpt lat="48.072014" lon="7.800209">
        <ele>198.497516</ele>
        <time>2025-11-04T16:49:11.347Z</time>
      </trkpt>
      <trkpt lat="48.071871" lon="7.800372">
        <ele>198.553913</ele>
        <time>2025-11-04T16:49:15.218Z</time>
      </trkpt>
      <trkpt lat="48.071586" lon="7.800736">
        <ele>198.671468</ele>
        <time>2025-11-04T16:49:23.289Z</time>
      </trkpt>
      <trkpt lat="48.071406" lon="7.801077">
        <ele>198.762574</ele>
        <time>2025-11-04T16:49:29.523Z</time>
      </trkpt>
      <trkpt lat="48.071307" lon="7.801271">
        <ele>198.813750</ele>
        <time>2025-11-04T16:49:33.028Z</time>
      </trkpt>
      <trkpt lat="48.071215" lon="7.801379">
        <ele>198.850435</ele>
        <time>2025-11-04T16:49:35.535Z</time>
      </trkpt>
      <trkpt lat="48.071251" lon="7.801463">
        <ele>198.871357</ele>
        <time>2025-11-04T16:49:36.969Z</time>
      </trkpt>
      <trkpt lat="48.071283" lon="7.801536">
        <ele>198.889661</ele>
        <time>2025-11-04T16:49:38.230Z</time>
      </trkpt>
      <trkpt lat="48.071295" lon="7.801564">
        <ele>198.896634</ele>
        <time>2025-11-04T16:49:38.708Z</time>
      </trkpt>
      <trkpt lat="48.071447" lon="7.801935">
        <ele>198.991778</ele>
        <time>2025-11-04T16:49:45.037Z</time>
      </trkpt>
      <trkpt lat="48.071558" lon="7.802244">
        <ele>199.069787</ele>
        <time>2025-11-04T16:49:50.180Z</time>
      </trkpt>
      <trkpt lat="48.071625" lon="7.802545">
        <ele>199.140334</ele>
        <time>2025-11-04T16:49:54.838Z</time>
      </trkpt>
      <trkpt lat="48.071638" lon="7.802613">
        <ele>199.156061</ele>
        <time>2025-11-04T16:49:55.875Z</time>
      </trkpt>
      <trkpt lat="48.071703" lon="7.803260">
        <ele>199.301545</ele>
        <time>2025-11-04T16:50:05.420Z</time>
      </trkpt>
      <trkpt lat="48.071722" lon="7.803610">
        <ele>199.379627</ele>
        <time>2025-11-04T16:50:10.467Z</time>
      </trkpt>
      <trkpt lat="48.071754" lon="7.803929">
        <ele>199.451355</ele>
        <time>2025-11-04T16:50:15.070Z</time>
      </trkpt>
      <trkpt lat="48.071771" lon="7.804183">
        <ele>199.508117</ele>
        <time>2025-11-04T16:50:18.704Z</time>
      </trkpt>
      <trkpt lat="48.071787" lon="7.804308">
        <ele>199.521963</ele>
        <time>2025-11-04T16:50:20.527Z</time>
      </trkpt>
      <trkpt lat="48.071499" lon="7.804477">
        <ele>199.521963</ele>
        <time>2025-11-04T16:50:27.138Z</time>
      </trkpt>
      <trkpt lat="48.071599" lon="7.804721">
        <ele>199.521963</ele>
        <time>2025-11-04T16:50:31.211Z</time>
      </trkpt>
      <trkpt lat="48.071741" lon="7.805212">
        <ele>199.521963</ele>
        <time>2025-11-04T16:50:38.852Z</time>
      </trkpt>
      <trkpt lat="48.071834" lon="7.805743">
        <ele>199.521963</ele>
        <time>2025-11-04T16:50:46.645Z</time>
      </trkpt>
      <trkpt lat="48.071831" lon="7.806061">
        <ele>199.521963</ele>
        <time>2025-11-04T16:50:51.071Z</time>
      </trkpt>
      <trkpt lat="48.071771" lon="7.806291">
        <ele>199.521963</ele>
        <time>2025-11-04T16:50:54.536Z</time>
      </trkpt>
      <trkpt lat="48.071776" lon="7.806417">
        <ele>199.521963</ele>
        <time>2025-11-04T16:50:56.350Z</time>
      </trkpt>
      <trkpt lat="48.071918" lon="7.806830">
        <ele>199.521963</ele>
        <time>2025-11-04T16:51:02.947Z</time>
      </trkpt>
      <trkpt lat="48.072030" lon="7.807272">
        <ele>199.521963</ele>
        <time>2025-11-04T16:51:09.696Z</time>
      </trkpt>
    </trkseg>
  </trk>
</gpx>